PK757 Escorted to Stansted Airport (7th of February, 2017)

Aircraft A333 Reg No. 4R-ALN Age 2 years old
Model A330 Jet engines 2 First flight 28-01-15
Registered 09-02-17 Rollout 01-15 Delivered 26-03-15
Construction No. 1604 Line No. N/A Series 343E
ADSHEX 77058E Airline name SriLankan Airlines Owner N/A
Airfield based Colombo-Bandaranaike~ ~4R First tracked 2015-03-26 09:13:01

Flight history for 4R-ALN

Route Flight No Date Playback
Bandaranaike Intl Colombo (CMB) - Chennai Intl (MAA) UL121 2017-06-23 02:17:05
King Khaled Intl (RUH) - Bandaranaike Intl Colombo (CMB) UL266 2017-06-22 19:23:26
Bandaranaike Intl Colombo (CMB) - King Khaled Intl (RUH) UL265 2017-06-22 13:26:12
Bandaranaike Intl Colombo (CMB) - Chennai Intl (MAA) UL127 2017-06-22 08:20:11
Ibrahim Nasir Intl (MLE) - Bandaranaike Intl Colombo (CMB) UL102 2017-06-22 05:26:04
Bandaranaike Intl Colombo (CMB) - Ibrahim Nasir Intl (MLE) UL101 2017-06-22 02:03:10
King Abdulaziz Intl (JED) - Bandaranaike Intl Colombo (CMB) UL282 2017-06-21 18:03:13
Bandaranaike Intl Colombo (CMB) - King Abdulaziz Intl (JED) UL281 2017-06-21 09:08:09
Kuwait Intl (KWI) - Bandaranaike Intl Colombo (CMB) UL230 2017-06-20 19:54:07
Bandaranaike Intl Colombo (CMB) - Kuwait Intl (KWI) UL229 2017-06-20 16:11:28
King Khaled Intl (RUH) - Bandaranaike Intl Colombo (CMB) UL266 2017-06-19 20:19:06
Bandaranaike Intl Colombo (CMB) - King Khaled Intl (RUH) UL265 2017-06-19 13:16:11
Kuala Lumpur Intl (KUL) - Bandaranaike Intl Colombo (CMB) UL315 2017-06-19 07:29:10
Bandaranaike Intl Colombo (CMB) - Kuala Lumpur Intl (KUL) UL314 2017-06-19 02:33:05
Hamad International Airport (DOH) - Bandaranaike Intl Colombo (CMB) UL218 2017-06-18 19:38:04
Bandaranaike Intl Colombo (CMB) - Hamad International Airport (DOH) UL217 2017-06-18 13:51:15
Narita Intl (NRT) - Bandaranaike Intl Colombo (CMB) UL455 2017-06-18 02:55:04
Bandaranaike Intl Colombo (CMB) - Narita Intl (NRT) UL454 2017-06-17 13:59:10
Cochin (COK) - Bandaranaike Intl Colombo (CMB) UL168 2017-06-17 11:30:14
Bandaranaike Intl Colombo (CMB) - Chennai Intl (MAA) UL121 2017-06-17 02:19:04
Time Lat Lon Altitude Heading Speed Vertical Rate
2017-02-07 14:57:09 GMT 51.88900 0.21952 0 348 0 0
2017-02-07 14:56:39 GMT 51.88900 0.21952 0 348 0 0
2017-02-07 14:56:27 GMT 51.88897 0.21952 0 348 5 0
2017-02-07 14:56:06 GMT 51.88833 0.21969 0 331 9 0
2017-02-07 14:55:08 GMT 51.88822 0.22463 0 309 18 0
2017-02-07 14:54:58 GMT 51.88763 0.22580 0 309 20 0
2017-02-07 14:54:55 GMT 51.88751 0.22602 0 309 21 0
2017-02-07 14:54:24 GMT 51.88590 0.22917 0 309 12 0
2017-02-07 14:54:22 GMT 51.88581 0.22934 0 309 12 0
2017-02-07 14:54:11 GMT 51.88546 0.23008 0 315 12 0
2017-02-07 14:53:58 GMT 51.88502 0.23073 0 25 11 0
2017-02-07 14:53:50 GMT 51.88470 0.23046 0 42 10 0
2017-02-07 14:53:42 GMT 51.88449 0.23004 0 16 11 0
2017-02-07 14:53:30 GMT 51.88394 0.23003 0 298 12 0
2017-02-07 14:53:21 GMT 51.88372 0.23079 0 292 15 0
2017-02-07 14:53:10 GMT 51.88341 0.23178 0 267 14 0
2017-02-07 14:52:55 GMT 51.88408 0.23342 0 222 39 0
2017-02-07 14:52:48 GMT 51.88513 0.23500 0 222 69 0
2017-02-07 14:52:24 GMT 51.89484 0.24956 325 224 140 -832
2017-02-07 14:52:20 GMT 51.89620 0.25174 375 224 140 -768
2017-02-07 14:52:12 GMT 51.89983 0.25716 475 223 140 -768
2017-02-07 14:52:08 GMT 51.90197 0.26030 525 223 140 -768
2017-02-07 14:52:01 GMT 51.90505 0.26493 625 223 140 -768
2017-02-07 14:51:50 GMT 51.91017 0.27260 750 223 139 -640
2017-02-07 14:51:45 GMT 51.91306 0.27702 825 223 139 -640
2017-02-07 14:51:43 GMT 51.91357 0.27772 825 224 138 -768
2017-02-07 14:51:40 GMT 51.91557 0.28076 875 223 138 -704
2017-02-07 14:51:34 GMT 51.91782 0.28412 950 223 139 -768
2017-02-07 14:51:32 GMT 51.91850 0.28511 975 223 139 -832
2017-02-07 14:51:29 GMT 51.92052 0.28816 1,025 223 139 -768
2017-02-07 14:51:23 GMT 51.92313 0.29213 1,100 224 140 -768
2017-02-07 14:51:21 GMT 51.92451 0.29420 1,125 223 140 -704
2017-02-07 14:51:18 GMT 51.92548 0.29569 1,150 223 141 -768
2017-02-07 14:51:13 GMT 51.92789 0.29930 1,225 224 143 -768
2017-02-07 14:51:08 GMT 51.93065 0.30346 1,300 224 146 -704
2017-02-07 14:51:06 GMT 51.93091 0.30380 1,300 224 146 -704
2017-02-07 14:51:02 GMT 51.93315 0.30724 1,350 223 151 -704
2017-02-07 14:50:58 GMT 51.93540 0.31060 1,400 223 153 -1024
2017-02-07 14:50:56 GMT 51.93642 0.31217 1,425 223 154 -1024
2017-02-07 14:50:50 GMT 51.93964 0.31696 1,525 223 159 -960
2017-02-07 14:50:47 GMT 51.94157 0.31982 1,600 223 162 -1024
2017-02-07 14:50:44 GMT 51.94253 0.32135 1,625 223 162 -1024
2017-02-07 14:50:41 GMT 51.94464 0.32448 1,675 223 163 -960
2017-02-07 14:50:37 GMT 51.94662 0.32739 1,750 223 166 -1024
2017-02-07 14:50:33 GMT 51.94862 0.33038 1,800 223 166 -1024
2017-02-07 14:50:31 GMT 51.94997 0.33249 1,850 224 165 -960
2017-02-07 14:50:27 GMT 51.95242 0.33615 1,925 223 163 -832
2017-02-07 14:50:23 GMT 51.95448 0.33924 1,975 223 161 -448
2017-02-07 14:50:20 GMT 51.95613 0.34180 2,000 223 161 -192
2017-02-07 14:50:17 GMT 51.95779 0.34419 2,000 224 160 64
2017-02-07 14:50:15 GMT 51.95924 0.34645 2,000 224 160 128
2017-02-07 14:50:12 GMT 51.96091 0.34897 2,000 223 161 128
2017-02-07 14:50:09 GMT 51.96217 0.35086 1,975 224 161 0
2017-02-07 14:50:06 GMT 51.96378 0.35332 1,975 224 161 0
2017-02-07 14:50:03 GMT 51.96579 0.35637 1,975 224 161 64
2017-02-07 14:50:01 GMT 51.96689 0.35812 1,975 224 161 128
2017-02-07 14:49:59 GMT 51.96812 0.36003 1,975 224 161 128
2017-02-07 14:49:55 GMT 51.96975 0.36255 1,975 225 161 64
2017-02-07 14:49:50 GMT 51.97220 0.36652 1,950 226 163 0
2017-02-07 14:49:48 GMT 51.97353 0.36865 1,975 226 163 0
2017-02-07 14:49:45 GMT 51.97549 0.37193 1,975 228 163 0
2017-02-07 14:49:40 GMT 51.97737 0.37514 1,975 229 162 0
2017-02-07 14:49:38 GMT 51.97888 0.37777 1,975 229 162 -64
2017-02-07 14:49:35 GMT 51.98048 0.38071 1,975 229 162 -64
2017-02-07 14:49:33 GMT 51.98177 0.38307 1,975 229 162 -128
2017-02-07 14:49:28 GMT 51.98341 0.38605 1,975 230 160 384
2017-02-07 14:49:23 GMT 51.98591 0.39064 1,975 237 158 896
2017-02-07 14:49:18 GMT 51.98814 0.39661 1,975 254 154 512
2017-02-07 14:49:16 GMT 51.98854 0.39833 1,975 259 153 192
2017-02-07 14:49:14 GMT 51.98926 0.40320 1,975 260 152 -64
2017-02-07 14:49:09 GMT 51.98978 0.40733 1,975 260 152 0
2017-02-07 14:49:07 GMT 51.98991 0.40838 1,975 260 152 0
2017-02-07 14:49:05 GMT 51.99014 0.41058 1,975 260 152 -64
2017-02-07 14:49:02 GMT 51.99138 0.42084 2,000 260 154 -64
2017-02-07 14:48:57 GMT 51.99138 0.42084 2,000 260 155 -64
2017-02-07 14:48:55 GMT 51.99145 0.42133 2,000 260 155 -64
2017-02-07 14:48:50 GMT 51.99216 0.42755 2,000 260 159 -320
2017-02-07 14:48:47 GMT 51.99261 0.43161 2,025 260 160 -448
2017-02-07 14:48:45 GMT 51.99280 0.43333 2,025 261 161 -448
2017-02-07 14:48:42 GMT 51.99331 0.43765 2,075 261 163 -448
2017-02-07 14:48:38 GMT 51.99387 0.44314 2,100 262 166 -256
2017-02-07 14:48:36 GMT 51.99410 0.44526 2,100 263 166 -192
2017-02-07 14:48:34 GMT 51.99429 0.44746 2,125 263 167 -192
2017-02-07 14:48:30 GMT 51.99458 0.45128 2,150 265 168 -256
2017-02-07 14:48:27 GMT 51.99485 0.45515 2,175 267 169 -320
2017-02-07 14:48:25 GMT 51.99494 0.45844 2,200 270 171 -320
2017-02-07 14:48:23 GMT 51.99495 0.46211 2,225 271 172 -640
2017-02-07 14:48:21 GMT 51.99494 0.46284 2,225 271 172 -640
2017-02-07 14:48:17 GMT 51.99489 0.47053 2,300 271 173 -1024
2017-02-07 14:48:15 GMT 51.99490 0.47256 2,350 271 173 -960
2017-02-07 14:48:12 GMT 51.99485 0.47665 2,400 271 174 -640
2017-02-07 14:48:10 GMT 51.99486 0.47722 2,400 271 174 -768
2017-02-07 14:48:06 GMT 51.99481 0.48256 2,450 272 175 -704
2017-02-07 14:48:03 GMT 51.99475 0.48662 2,475 272 176 -896
2017-02-07 14:48:01 GMT 51.99468 0.49110 2,550 272 176 -1152
2017-02-07 14:47:58 GMT 51.99463 0.49362 2,575 272 176 -1152
2017-02-07 14:47:55 GMT 51.99457 0.49705 2,625 272 177 -1152
2017-02-07 14:47:53 GMT 51.99454 0.50057 2,675 272 177 -1088
2017-02-07 14:47:51 GMT 51.99447 0.50247 2,700 272 177 -1088
2017-02-07 14:47:48 GMT 51.99445 0.50621 2,775 272 178 -1024
2017-02-07 14:47:46 GMT 51.99440 0.50888 2,800 272 179 -1024
2017-02-07 14:47:44 GMT 51.99433 0.51306 2,850 272 180 -960
2017-02-07 14:47:41 GMT 51.99424 0.51636 2,900 272 181 -1088
2017-02-07 14:47:39 GMT 51.99422 0.51971 2,950 272 185 -1216
2017-02-07 14:47:37 GMT 51.99415 0.52350 3,000 272 182 -1216
2017-02-07 14:47:35 GMT 51.99412 0.52490 3,025 272 182 -1280
2017-02-07 14:47:31 GMT 51.99399 0.53116 3,125 272 184 -1408
2017-02-07 14:47:29 GMT 51.99396 0.53237 3,150 272 184 -1408
2017-02-07 14:47:27 GMT 51.99390 0.53673 3,225 272 185 -1280
2017-02-07 14:47:24 GMT 51.99385 0.53963 3,275 272 185 -1216
2017-02-07 14:47:22 GMT 51.99377 0.54343 3,325 272 186 -1088
2017-02-07 14:47:20 GMT 51.99373 0.54555 3,375 272 188 -1024
2017-02-07 14:47:16 GMT 51.99359 0.55198 3,450 272 189 -1152
2017-02-07 14:47:14 GMT 51.99354 0.55504 3,500 272 190 -1216
2017-02-07 14:47:12 GMT 51.99350 0.55732 3,525 272 190 -1280
2017-02-07 14:47:10 GMT 51.99339 0.56107 3,600 272 192 -1024
2017-02-07 14:47:07 GMT 51.99335 0.56465 3,650 272 192 -1088
2017-02-07 14:47:05 GMT 51.99330 0.56671 3,675 272 193 -1280
2017-02-07 14:47:03 GMT 51.99322 0.56878 3,700 272 193 -1344
2017-02-07 14:47:00 GMT 51.99312 0.57411 3,775 272 194 -1344
2017-02-07 14:46:58 GMT 51.99307 0.57610 3,825 272 195 -1280
2017-02-07 14:46:56 GMT 51.99298 0.58031 3,875 272 195 -1152
2017-02-07 14:46:54 GMT 51.99294 0.58267 3,900 272 196 -896
2017-02-07 14:46:52 GMT 51.99289 0.58495 3,950 273 220 -2112
2017-02-07 14:46:50 GMT 51.99284 0.58871 3,975 272 200 -128
2017-02-07 14:46:47 GMT 51.99275 0.59240 4,000 272 203 128
2017-02-07 14:46:45 GMT 51.99271 0.59554 3,975 272 206 64
2017-02-07 14:46:43 GMT 51.99262 0.59906 4,000 272 210 -128
2017-02-07 14:46:41 GMT 51.99252 0.60310 4,000 272 213 -384
2017-02-07 14:46:39 GMT 51.99248 0.60608 4,000 272 215 -576
2017-02-07 14:46:37 GMT 51.99239 0.61020 4,050 272 216 -768
2017-02-07 14:46:33 GMT 51.99229 0.61531 4,075 273 218 -896
2017-02-07 14:46:30 GMT 51.99216 0.61974 4,125 273 220 -960
2017-02-07 14:46:28 GMT 51.99202 0.62546 4,200 273 221 -1280
2017-02-07 14:46:26 GMT 51.99201 0.62677 4,200 273 221 -1472
2017-02-07 14:46:22 GMT 51.99182 0.63360 4,325 273 219 -2304
2017-02-07 14:46:20 GMT 51.99179 0.63530 4,350 273 218 -2496
2017-02-07 14:46:18 GMT 51.99170 0.63850 4,425 273 218 -2496
2017-02-07 14:46:16 GMT 51.99154 0.64372 4,575 273 217 -2496
2017-02-07 14:46:14 GMT 51.99140 0.64757 4,675 273 216 -2496
2017-02-07 14:46:12 GMT 51.99138 0.64911 4,725 273 216 -2432
2017-02-07 14:46:09 GMT 51.99121 0.65384 4,825 273 216 -2176
2017-02-07 14:46:06 GMT 51.99110 0.65804 4,925 273 216 -1920
2017-02-07 14:46:04 GMT 51.99101 0.66132 5,000 273 215 -1920
2017-02-07 14:46:01 GMT 51.99084 0.66695 5,125 273 215 -2048
2017-02-07 14:45:57 GMT 51.99066 0.67378 5,275 273 213 -2176
2017-02-07 14:45:54 GMT 51.99051 0.67856 5,375 273 212 -2176
2017-02-07 14:45:54 GMT 51.99051 0.67856 5,375 273 212 -2176
2017-02-07 14:45:52 GMT 51.99033 0.68327 5,475 273 212 -1792
2017-02-07 14:45:52 GMT 51.99033 0.68327 5,475 273 212 -1792
2017-02-07 14:45:50 GMT 51.99033 0.68398 5,500 273 212 -1792
2017-02-07 14:45:47 GMT 51.99019 0.68876 5,600 273 212 -1344
2017-02-07 14:45:45 GMT 51.99005 0.69298 5,650 274 212 -960
2017-02-07 14:45:43 GMT 51.98991 0.69618 5,700 274 212 -960
2017-02-07 14:45:40 GMT 51.98978 0.69992 5,725 273 212 -896
2017-02-07 14:45:38 GMT 51.98964 0.70381 5,775 271 214 -832
2017-02-07 14:45:35 GMT 51.98950 0.70961 5,800 271 214 -832
2017-02-07 14:45:33 GMT 51.98941 0.71266 5,825 269 214 -960
2017-02-07 14:45:32 GMT 51.98941 0.71266 5,825 269 214 -960
2017-02-07 14:45:30 GMT 51.98950 0.71655 5,850 262 216 -1280
2017-02-07 14:45:27 GMT 51.98968 0.72110 5,875 258 217 -1408
2017-02-07 14:45:24 GMT 51.99047 0.72753 5,925 251 219 -1344
2017-02-07 14:45:22 GMT 51.99120 0.73135 5,950 247 220 -1344
2017-02-07 14:45:20 GMT 51.99187 0.73381 5,950 242 222 -1344
2017-02-07 14:45:14 GMT 51.99463 0.74135 6,000 231 227 -1408
2017-02-07 14:45:12 GMT 51.99596 0.74432 6,025 227 229 -1408
2017-02-07 14:45:09 GMT 51.99834 0.74814 6,050 217 232 -1536
2017-02-07 14:45:06 GMT 51.99994 0.75028 6,050 202 238 -1856
2017-02-07 14:45:04 GMT 52.00341 0.75390 6,100 206 236 -1856
2017-02-07 14:45:02 GMT 52.00539 0.75562 6,150 200 238 -1920
2017-02-07 14:45:00 GMT 52.00648 0.75641 6,150 195 239 -1984
2017-02-07 14:44:58 GMT 52.00853 0.75759 6,200 193 240 -1984
2017-02-07 14:44:53 GMT 52.01445 0.75951 6,300 183 242 -1664
2017-02-07 14:44:51 GMT 52.01678 0.75981 6,350 179 244 -1216
2017-02-07 14:44:49 GMT 52.01852 0.75989 6,375 176 245 -1024
2017-02-07 14:44:47 GMT 52.02050 0.75978 6,400 177 245 -1088
2017-02-07 14:44:45 GMT 52.02351 0.75958 6,425 176 245 -1152
2017-02-07 14:44:42 GMT 52.02641 0.75931 6,475 176 245 -1280
2017-02-07 14:44:40 GMT 52.02864 0.75908 6,500 176 245 -1600
2017-02-07 14:44:38 GMT 52.03083 0.75884 6,550 176 245 -1600
2017-02-07 14:44:36 GMT 52.03325 0.75853 6,625 175 244 -1664
2017-02-07 14:44:34 GMT 52.03544 0.75829 6,675 175 244 -1664
2017-02-07 14:44:31 GMT 52.03981 0.75775 6,775 175 244 -1664
2017-02-07 14:44:29 GMT 52.04084 0.75759 6,800 175 244 -1664
2017-02-07 14:44:27 GMT 52.04270 0.75735 6,850 175 245 -1600
2017-02-07 14:44:24 GMT 52.04622 0.75691 6,925 167 249 -1920
2017-02-07 14:44:22 GMT 52.04865 0.75661 7,000 174 247 -1472
2017-02-07 14:44:20 GMT 52.05322 0.75592 7,075 172 248 -1600
2017-02-07 14:44:18 GMT 52.05415 0.75578 7,100 171 248 -1664
2017-02-07 14:44:15 GMT 52.05657 0.75523 7,150 169 249 -1856
2017-02-07 14:44:13 GMT 52.05936 0.75447 7,225 155 253 -1536
2017-02-07 14:44:12 GMT 52.06062 0.75405 7,250 162 251 -1856
2017-02-07 14:44:10 GMT 52.06220 0.75333 7,275 127 259 -1152
2017-02-07 14:44:08 GMT 52.06574 0.75139 7,350 153 254 -1472
2017-02-07 14:44:06 GMT 52.06622 0.75111 7,375 153 254 -1472
2017-02-07 14:44:04 GMT 52.06928 0.74880 7,425 147 256 -1344
2017-02-07 14:44:02 GMT 52.07112 0.74699 7,450 139 258 -1216
2017-02-07 14:44:00 GMT 52.07333 0.74472 7,500 139 258 -1216
2017-02-07 14:43:57 GMT 52.07701 0.73977 7,575 131 258 -1216
2017-02-07 14:43:55 GMT 52.07835 0.73738 7,625 129 258 -1216
2017-02-07 14:43:53 GMT 52.07945 0.73555 7,650 106 259 -512
2017-02-07 14:43:51 GMT 52.08064 0.73294 7,700 123 258 -1088
2017-02-07 14:43:49 GMT 52.08208 0.72957 7,750 119 257 -1024
2017-02-07 14:43:46 GMT 52.08413 0.72376 7,825 111 259 -768
2017-02-07 14:43:43 GMT 52.08572 0.71762 7,875 106 259 -512
2017-02-07 14:43:41 GMT 52.08609 0.71584 7,900 104 259 -384
2017-02-07 14:43:39 GMT 52.08705 0.70984 7,950 98 258 -64
2017-02-07 14:43:37 GMT 52.08725 0.70791 7,975 95 259 128
2017-02-07 14:43:35 GMT 52.08758 0.70399 7,975 92 258 320
2017-02-07 14:43:32 GMT 52.08786 0.69771 8,000 89 258 320
2017-02-07 14:43:29 GMT 52.08781 0.69284 8,000 87 258 128
2017-02-07 14:43:27 GMT 52.08776 0.68986 8,000 87 258 64
2017-02-07 14:43:25 GMT 52.08765 0.68382 8,000 87 258 -64
2017-02-07 14:43:23 GMT 52.08753 0.68092 8,000 87 258 -64
2017-02-07 14:43:21 GMT 52.08744 0.67723 8,000 87 258 0
2017-02-07 14:43:19 GMT 52.08734 0.67354 8,000 87 258 0
2017-02-07 14:43:17 GMT 52.08723 0.66902 8,000 87 258 64
2017-02-07 14:43:15 GMT 52.08702 0.66302 8,000 87 259 64
2017-02-07 14:43:13 GMT 52.08702 0.66193 8,000 86 259 64
2017-02-07 14:43:11 GMT 52.08682 0.65605 8,000 86 259 64
2017-02-07 14:43:09 GMT 52.08674 0.65408 8,000 86 259 0
2017-02-07 14:43:07 GMT 52.08650 0.64804 8,000 85 259 -64
2017-02-07 14:43:05 GMT 52.08632 0.64380 8,000 85 258 -64
2017-02-07 14:43:03 GMT 52.08618 0.64049 8,000 84 259 0
2017-02-07 14:43:00 GMT 52.08586 0.63462 8,025 83 258 192
2017-02-07 14:42:58 GMT 52.08567 0.63179 8,025 83 257 320
2017-02-07 14:42:54 GMT 52.08516 0.62442 8,025 79 257 704
2017-02-07 14:42:52 GMT 52.08465 0.61947 8,000 76 257 832
2017-02-07 14:42:50 GMT 52.08444 0.61783 8,000 48 250 896
2017-02-07 14:42:48 GMT 52.08339 0.61119 8,000 68 255 960
2017-02-07 14:42:46 GMT 52.08298 0.60959 8,000 66 255 960
2017-02-07 14:42:44 GMT 52.08202 0.60593 8,000 60 253 896
2017-02-07 14:42:42 GMT 52.08101 0.60237 8,000 54 252 896
2017-02-07 14:42:40 GMT 52.07911 0.59774 8,000 52 251 896
2017-02-07 14:42:38 GMT 52.07845 0.59624 8,000 50 250 896
2017-02-07 14:42:36 GMT 52.07659 0.59240 8,000 44 249 896
2017-02-07 14:42:34 GMT 52.07496 0.58965 8,000 40 248 896
2017-02-07 14:42:32 GMT 52.07414 0.58838 8,000 32 246 832
2017-02-07 14:42:30 GMT 52.07236 0.58594 8,000 34 247 896
2017-02-07 14:42:28 GMT 52.07048 0.58373 8,000 30 246 832
2017-02-07 14:42:26 GMT 52.06761 0.58086 8,000 24 244 768
2017-02-07 14:42:24 GMT 52.06514 0.57898 8,000 18 243 704
2017-02-07 14:42:22 GMT 52.06403 0.57823 8,000 14 241 704
2017-02-07 14:42:20 GMT 52.06090 0.57655 8,000 10 241 640
2017-02-07 14:42:18 GMT 52.05972 0.57602 8,000 8 240 640
2017-02-07 14:42:16 GMT 52.05690 0.57506 8,000 4 239 576
2017-02-07 14:42:14 GMT 52.05448 0.57466 8,000 358 237 512
2017-02-07 14:42:12 GMT 52.05354 0.57457 8,000 356 236 512
2017-02-07 14:42:10 GMT 52.05066 0.57443 8,000 326 230 0
2017-02-07 14:42:08 GMT 52.04805 0.57482 8,000 350 234 512
2017-02-07 14:42:06 GMT 52.04638 0.57513 8,000 328 231 0
2017-02-07 14:42:04 GMT 52.04419 0.57592 8,000 343 233 320
2017-02-07 14:42:02 GMT 52.04214 0.57686 7,975 337 232 128
2017-02-07 14:42:00 GMT 52.03944 0.57851 8,000 333 232 0
2017-02-07 14:41:58 GMT 52.03848 0.57915 8,000 333 232 0
2017-02-07 14:41:56 GMT 52.03528 0.58174 8,000 328 231 0
2017-02-07 14:41:54 GMT 52.03445 0.58258 8,000 326 231 0
2017-02-07 14:41:52 GMT 52.03303 0.58395 8,000 327 230 0
2017-02-07 14:41:50 GMT 52.03023 0.58698 8,000 326 231 0
2017-02-07 14:41:48 GMT 52.02850 0.58895 8,000 325 230 0
2017-02-07 14:41:46 GMT 52.02669 0.59099 8,000 325 231 0
2017-02-07 14:41:44 GMT 52.02497 0.59303 8,000 324 231 0
2017-02-07 14:41:44 GMT 52.02443 0.59357 8,000 324 231 0
2017-02-07 14:41:41 GMT 52.02219 0.59624 8,000 323 231 0
2017-02-07 14:41:39 GMT 52.02086 0.59792 8,000 322 230 0
2017-02-07 14:41:37 GMT 52.01894 0.60028 8,000 322 230 0
2017-02-07 14:41:33 GMT 52.01601 0.60402 8,000 321 230 -64
2017-02-07 14:41:30 GMT 52.01337 0.60754 8,000 321 230 -128
2017-02-07 14:41:28 GMT 52.01133 0.61037 8,000 321 230 -64
2017-02-07 14:41:28 GMT 52.01165 0.60990 8,000 321 230 -64
2017-02-07 14:41:26 GMT 52.01088 0.61096 8,000 321 230 -64
2017-02-07 14:41:24 GMT 52.00821 0.61453 8,000 321 230 0
2017-02-07 14:41:21 GMT 52.00653 0.61680 8,000 323 230 64
2017-02-07 14:41:18 GMT 52.00350 0.62081 8,000 324 230 0
2017-02-07 14:41:16 GMT 52.00188 0.62277 8,000 328 230 -128
2017-02-07 14:41:16 GMT 52.00223 0.62225 8,000 326 230 -64
2017-02-07 14:41:14 GMT 52.00095 0.62378 8,000 330 231 -192
2017-02-07 14:41:12 GMT 51.99884 0.62592 8,000 348 237 -320
2017-02-07 14:41:10 GMT 51.99710 0.62759 8,000 335 231 0
2017-02-07 14:41:08 GMT 51.99367 0.63034 8,000 341 234 128
2017-02-07 14:41:08 GMT 51.99424 0.62991 8,000 339 233 128
2017-02-07 14:41:06 GMT 51.99266 0.63101 8,000 343 235 128
2017-02-07 14:41:04 GMT 51.99070 0.63218 7,975 347 235 -128
2017-02-07 14:41:02 GMT 51.98786 0.63352 7,975 351 237 -512
2017-02-07 14:41:00 GMT 51.98680 0.63385 7,975 353 238 -640
2017-02-07 14:40:58 GMT 51.98451 0.63446 7,975 358 239 -704
2017-02-07 14:40:56 GMT 51.98163 0.63485 8,000 0 240 -576
2017-02-07 14:40:55 GMT 51.98094 0.63492 8,000 1 240 -448
2017-02-07 14:40:54 GMT 51.97921 0.63493 8,000 2 239 -320
2017-02-07 14:40:53 GMT 51.97861 0.63492 8,000 2 239 -320
2017-02-07 14:40:51 GMT 51.97591 0.63469 8,025 2 239 64
2017-02-07 14:40:49 GMT 51.97412 0.63454 8,025 2 239 128
2017-02-07 14:40:47 GMT 51.97174 0.63431 8,000 354 235 384
2017-02-07 14:40:45 GMT 51.96890 0.63423 8,000 359 237 448
2017-02-07 14:40:43 GMT 51.96767 0.63416 8,000 354 235 384
2017-02-07 14:40:43 GMT 51.96767 0.63416 8,000 356 236 384
2017-02-07 14:40:43 GMT 51.96767 0.63416 8,000 356 236 384
2017-02-07 14:40:41 GMT 51.96552 0.63431 8,000 352 235 384
2017-02-07 14:40:39 GMT 51.96286 0.63484 8,000 348 234 320
2017-02-07 14:40:37 GMT 51.95970 0.63587 8,000 343 233 256
2017-02-07 14:40:35 GMT 51.95807 0.63666 8,000 341 232 256
2017-02-07 14:40:33 GMT 51.95654 0.63736 8,000 337 231 192
2017-02-07 14:40:31 GMT 51.95457 0.63858 8,000 333 231 128
2017-02-07 14:40:29 GMT 51.95219 0.64049 8,000 330 230 64
2017-02-07 14:40:27 GMT 51.95118 0.64137 8,000 326 229 0
2017-02-07 14:40:25 GMT 51.94926 0.64316 8,000 325 229 0
2017-02-07 14:40:23 GMT 51.94711 0.64575 8,000 319 228 -64
2017-02-07 14:40:21 GMT 51.94503 0.64843 8,000 314 228 -64
2017-02-07 14:40:19 GMT 51.94427 0.64964 8,000 312 228 -64
2017-02-07 14:40:17 GMT 51.94289 0.65204 8,000 309 227 -128
2017-02-07 14:40:15 GMT 51.94116 0.65521 8,000 305 228 -192
2017-02-07 14:40:12 GMT 51.93997 0.65781 8,000 302 227 -256
2017-02-07 14:40:10 GMT 51.93851 0.66154 8,000 298 228 -320
2017-02-07 14:40:08 GMT 51.93745 0.66467 8,000 295 227 -384
2017-02-07 14:40:08 GMT 51.93745 0.66467 8,000 295 227 -384
2017-02-07 14:40:05 GMT 51.93603 0.66971 8,000 287 226 -448
2017-02-07 14:40:03 GMT 51.93545 0.67244 8,000 284 227 -448
2017-02-07 14:40:01 GMT 51.93475 0.67596 8,000 279 227 -512
2017-02-07 14:40:01 GMT 51.93493 0.67527 8,000 280 226 -448
2017-02-07 14:39:59 GMT 51.93447 0.67825 8,000 279 227 -512
2017-02-07 14:39:57 GMT 51.93397 0.68352 8,000 273 227 -512
2017-02-07 14:39:55 GMT 51.93384 0.68710 8,000 269 228 -576
2017-02-07 14:39:53 GMT 51.93377 0.68861 8,000 265 227 -640
2017-02-07 14:39:50 GMT 51.93388 0.69313 8,000 262 228 -640
2017-02-07 14:39:48 GMT 51.93420 0.69702 8,000 247 231 -704
2017-02-07 14:39:46 GMT 51.93479 0.70179 8,000 241 234 -704
2017-02-07 14:39:43 GMT 51.93545 0.70540 8,000 241 234 -704
2017-02-07 14:39:40 GMT 51.93712 0.71184 8,000 241 234 -704
2017-02-07 14:39:40 GMT 51.93668 0.71030 8,000 243 233 -704
2017-02-07 14:39:38 GMT 51.93759 0.71342 8,000 236 234 -768
2017-02-07 14:39:36 GMT 51.93894 0.71717 8,000 234 235 -768
2017-02-07 14:39:34 GMT 51.94029 0.72039 8,000 231 236 -768
2017-02-07 14:39:32 GMT 51.94093 0.72182 8,000 228 236 -704
2017-02-07 14:39:30 GMT 51.94276 0.72533 8,000 227 236 -704
2017-02-07 14:39:28 GMT 51.94490 0.72902 8,000 223 237 -576
2017-02-07 14:39:26 GMT 51.94611 0.73090 8,000 220 239 -576
2017-02-07 14:39:24 GMT 51.94769 0.73318 8,000 217 239 -576
2017-02-07 14:39:22 GMT 51.95006 0.73608 8,000 201 244 -768
2017-02-07 14:39:19 GMT 51.95146 0.73765 8,000 210 242 -768
2017-02-07 14:39:17 GMT 51.95337 0.73954 8,000 206 242 -768
2017-02-07 14:39:17 GMT 51.95383 0.73993 8,000 206 242 -768
2017-02-07 14:39:15 GMT 51.95668 0.74219 8,000 187 247 -640
2017-02-07 14:39:13 GMT 51.95879 0.74356 8,000 197 245 -704
2017-02-07 14:39:10 GMT 51.96161 0.74503 8,000 193 246 -704
2017-02-07 14:39:08 GMT 51.96497 0.74616 8,000 187 247 -640
2017-02-07 14:39:05 GMT 51.96822 0.74676 8,000 179 250 -576
2017-02-07 14:39:03 GMT 51.96941 0.74684 8,000 177 250 -576
2017-02-07 14:39:01 GMT 51.97266 0.74669 8,000 173 250 -512
2017-02-07 14:38:59 GMT 51.97506 0.74636 8,000 167 252 -448
2017-02-07 14:38:57 GMT 51.97623 0.74608 8,000 165 252 -384
2017-02-07 14:38:54 GMT 51.97911 0.74501 8,000 157 254 -256
2017-02-07 14:38:52 GMT 51.98145 0.74379 8,000 157 254 -256
2017-02-07 14:38:50 GMT 51.98373 0.74234 8,000 152 254 -192
2017-02-07 14:38:48 GMT 51.98602 0.74051 8,000 148 255 -192
2017-02-07 14:38:46 GMT 51.98824 0.73860 8,000 142 256 -128
2017-02-07 14:38:43 GMT 51.99129 0.73509 8,000 136 257 -64
2017-02-07 14:38:41 GMT 51.99353 0.73181 8,000 132 257 0
2017-02-07 14:38:39 GMT 51.99486 0.72968 8,000 128 259 128
2017-02-07 14:38:36 GMT 51.99692 0.72563 8,000 124 259 192
2017-02-07 14:38:34 GMT 51.99834 0.72243 8,000 118 259 384
2017-02-07 14:38:32 GMT 51.99953 0.71930 8,000 116 259 384
2017-02-07 14:38:30 GMT 52.00067 0.71579 8,000 109 259 512
2017-02-07 14:38:28 GMT 52.00202 0.71042 8,000 100 258 704
2017-02-07 14:38:26 GMT 52.00271 0.70666 8,000 100 258 704
2017-02-07 14:38:22 GMT 52.00350 0.70030 8,000 91 259 960
2017-02-07 14:38:20 GMT 52.00369 0.69630 8,000 86 258 1088
2017-02-07 14:38:18 GMT 52.00365 0.69321 8,000 71 257 1024
2017-02-07 14:38:16 GMT 52.00355 0.68924 7,975 74 258 1088
2017-02-07 14:38:16 GMT 52.00341 0.68837 7,975 76 258 1088
2017-02-07 14:38:14 GMT 52.00281 0.68366 7,975 71 257 1024
2017-02-07 14:38:11 GMT 52.00191 0.67894 7,975 65 256 832
2017-02-07 14:38:09 GMT 52.00076 0.67467 7,975 61 256 704
2017-02-07 14:38:07 GMT 52.00020 0.67299 7,975 57 255 576
2017-02-07 14:38:05 GMT 51.99847 0.66818 8,000 54 255 448
2017-02-07 14:38:03 GMT 51.99778 0.66656 8,000 49 253 128
2017-02-07 14:38:01 GMT 51.99559 0.66170 8,000 49 253 128
2017-02-07 14:37:57 GMT 51.99326 0.65704 8,025 47 252 256
2017-02-07 14:37:55 GMT 51.99152 0.65376 8,025 47 251 384
2017-02-07 14:37:53 GMT 51.98982 0.65063 8,025 45 251 704
2017-02-07 14:37:49 GMT 51.98735 0.64654 8,000 41 250 960
2017-02-07 14:37:47 GMT 51.98524 0.64331 8,000 35 249 1024
2017-02-07 14:37:45 GMT 51.98291 0.64041 7,975 31 248 896
2017-02-07 14:37:44 GMT 51.98291 0.64041 7,975 31 248 896
2017-02-07 14:37:42 GMT 51.98037 0.63776 7,975 25 246 640
2017-02-07 14:37:42 GMT 51.98037 0.63776 7,975 18 244 320
2017-02-07 14:37:39 GMT 51.97746 0.63538 7,975 19 244 320
2017-02-07 14:37:36 GMT 51.97385 0.63320 8,000 15 243 192
2017-02-07 14:37:34 GMT 51.97222 0.63234 8,000 14 242 128
2017-02-07 14:37:32 GMT 51.96886 0.63095 8,000 13 243 64
2017-02-07 14:37:30 GMT 51.96835 0.63072 8,000 13 242 64
2017-02-07 14:37:28 GMT 51.96606 0.62981 8,000 13 242 0
2017-02-07 14:37:25 GMT 51.96153 0.62805 8,000 13 242 0
2017-02-07 14:37:23 GMT 51.96040 0.62763 8,000 13 242 0
2017-02-07 14:37:21 GMT 51.95714 0.62637 8,000 13 242 0
2017-02-07 14:37:18 GMT 51.95448 0.62528 8,000 13 242 64
2017-02-07 14:37:16 GMT 51.95183 0.62426 8,000 13 242 64
2017-02-07 14:37:14 GMT 51.94955 0.62340 8,000 13 242 0
2017-02-07 14:37:12 GMT 51.94830 0.62286 8,000 13 242 0
2017-02-07 14:37:10 GMT 51.94508 0.62159 8,000 13 242 0
2017-02-07 14:37:10 GMT 51.94559 0.62183 8,000 13 242 0
2017-02-07 14:37:08 GMT 51.94249 0.62058 8,000 13 242 0
2017-02-07 14:37:06 GMT 51.94038 0.61981 8,000 13 242 0
2017-02-07 14:37:02 GMT 51.93708 0.61845 8,000 13 243 0
2017-02-07 14:37:00 GMT 51.93581 0.61798 8,000 13 243 0
2017-02-07 14:36:59 GMT 51.93310 0.61699 8,000 13 243 0
2017-02-07 14:36:58 GMT 51.93256 0.61672 8,000 13 243 0
2017-02-07 14:36:56 GMT 51.93105 0.61615 8,000 13 243 0
2017-02-07 14:36:56 GMT 51.93150 0.61638 8,000 13 243 0
2017-02-07 14:36:54 GMT 51.92842 0.61516 8,000 13 242 0
2017-02-07 14:36:51 GMT 51.92581 0.61414 8,000 13 242 0
2017-02-07 14:36:51 GMT 51.92581 0.61414 8,000 13 242 0
2017-02-07 14:36:50 GMT 51.92468 0.61371 8,000 13 242 0
2017-02-07 14:36:48 GMT 51.92088 0.61225 8,000 13 242 0
2017-02-07 14:36:45 GMT 51.91855 0.61134 8,000 13 242 0
2017-02-07 14:36:43 GMT 51.91571 0.61028 8,000 13 242 0
2017-02-07 14:36:43 GMT 51.91571 0.61028 8,000 13 242 0
2017-02-07 14:36:43 GMT 51.91515 0.61006 8,000 13 243 0
2017-02-07 14:36:41 GMT 51.91454 0.60982 8,000 13 242 0
2017-02-07 14:36:39 GMT 51.91168 0.60875 8,000 13 243 0
2017-02-07 14:36:35 GMT 51.90761 0.60715 8,000 13 243 0
2017-02-07 14:36:33 GMT 51.90546 0.60631 8,000 13 243 0
2017-02-07 14:36:30 GMT 51.90188 0.60488 8,000 13 243 0
2017-02-07 14:36:28 GMT 51.90006 0.60417 8,000 14 243 0
2017-02-07 14:36:26 GMT 51.89786 0.60326 8,000 14 243 64
2017-02-07 14:36:25 GMT 51.89571 0.60242 8,000 14 243 64
2017-02-07 14:36:24 GMT 51.89625 0.60265 8,000 14 243 64
2017-02-07 14:36:22 GMT 51.89257 0.60112 8,000 13 243 0
2017-02-07 14:36:20 GMT 51.89094 0.60051 8,000 13 243 -64
2017-02-07 14:36:20 GMT 51.89094 0.60051 8,000 13 243 -64
2017-02-07 14:36:18 GMT 51.88916 0.59979 8,000 13 243 -64
2017-02-07 14:36:14 GMT 51.88391 0.59769 8,000 13 244 0
2017-02-07 14:36:12 GMT 51.88266 0.59720 8,000 13 244 0
2017-02-07 14:36:10 GMT 51.88042 0.59630 8,000 13 244 0
2017-02-07 14:36:10 GMT 51.88042 0.59630 8,000 13 244 0
2017-02-07 14:36:08 GMT 51.87763 0.59517 8,000 14 243 -64
2017-02-07 14:36:05 GMT 51.87392 0.59363 8,000 14 243 0
2017-02-07 14:36:02 GMT 51.87065 0.59235 8,000 13 244 64
2017-02-07 14:36:00 GMT 51.86850 0.59151 8,000 13 243 64
2017-02-07 14:35:57 GMT 51.86632 0.59059 8,000 13 243 0
2017-02-07 14:35:55 GMT 51.86362 0.58948 8,000 13 243 0
2017-02-07 14:35:53 GMT 51.86189 0.58884 8,000 13 243 -64
2017-02-07 14:35:51 GMT 51.85961 0.58792 8,000 13 243 -64
2017-02-07 14:35:49 GMT 51.85607 0.58647 8,000 13 243 0
2017-02-07 14:35:47 GMT 51.85469 0.58591 8,000 13 244 0
2017-02-07 14:35:43 GMT 51.85025 0.58420 8,000 13 245 -192
2017-02-07 14:35:41 GMT 51.84681 0.58281 8,000 14 244 -192
2017-02-07 14:35:38 GMT 51.84509 0.58212 8,025 14 244 -192
2017-02-07 14:35:37 GMT 51.84448 0.58189 8,025 14 244 -192
2017-02-07 14:35:37 GMT 51.84448 0.58189 8,025 14 244 -192
2017-02-07 14:35:35 GMT 51.84119 0.58049 8,025 19 246 0
2017-02-07 14:35:32 GMT 51.83852 0.57938 8,025 17 245 0
2017-02-07 14:35:30 GMT 51.83693 0.57856 8,000 19 246 0
2017-02-07 14:35:30 GMT 51.83693 0.57856 8,000 18 245 0
2017-02-07 14:35:28 GMT 51.83391 0.57694 8,000 34 252 -832
2017-02-07 14:35:26 GMT 51.83210 0.57579 7,975 25 249 -384
2017-02-07 14:35:24 GMT 51.82996 0.57419 7,975 29 250 -640
2017-02-07 14:35:22 GMT 51.82754 0.57182 7,975 36 253 -896
2017-02-07 14:35:20 GMT 51.82596 0.57022 7,975 41 255 -832
2017-02-07 14:35:17 GMT 51.82310 0.56654 8,000 44 255 -640
2017-02-07 14:35:15 GMT 51.82176 0.56450 8,000 45 255 -512
2017-02-07 14:35:13 GMT 51.81963 0.56112 8,000 46 256 -192
2017-02-07 14:35:10 GMT 51.81734 0.55718 8,000 47 255 0
2017-02-07 14:35:07 GMT 51.81500 0.55303 8,000 47 255 0
2017-02-07 14:35:06 GMT 51.81413 0.55153 8,000 47 255 0
2017-02-07 14:35:05 GMT 51.81331 0.55006 8,000 47 255 0
2017-02-07 14:35:02 GMT 51.81116 0.54627 8,000 47 254 -64
2017-02-07 14:34:59 GMT 51.80855 0.54167 8,000 47 254 -64
2017-02-07 14:34:57 GMT 51.80738 0.53955 8,000 47 254 -64
2017-02-07 14:34:55 GMT 51.80459 0.53467 8,000 47 254 -64
2017-02-07 14:34:55 GMT 51.80459 0.53467 8,000 47 254 -64
2017-02-07 14:34:54 GMT 51.80374 0.53313 8,000 47 254 -64
2017-02-07 14:34:53 GMT 51.80374 0.53313 8,000 47 254 -64
2017-02-07 14:34:51 GMT 51.80254 0.53101 8,000 47 254 -64
2017-02-07 14:34:50 GMT 51.80214 0.53024 8,000 47 254 -64
2017-02-07 14:34:48 GMT 51.80017 0.52682 8,000 47 254 -64
2017-02-07 14:34:46 GMT 51.79830 0.52345 8,000 47 254 0
2017-02-07 14:34:44 GMT 51.79644 0.52025 8,000 47 255 -64
2017-02-07 14:34:41 GMT 51.79395 0.51584 8,025 47 255 -64
2017-02-07 14:34:39 GMT 51.79239 0.51316 8,025 47 254 -128
2017-02-07 14:34:37 GMT 51.79111 0.51094 8,025 47 254 -128
2017-02-07 14:34:35 GMT 51.78988 0.50873 8,025 47 255 -128
2017-02-07 14:34:33 GMT 51.78777 0.50507 8,025 47 256 -192
2017-02-07 14:34:31 GMT 51.78603 0.50196 8,025 47 256 -192
2017-02-07 14:34:28 GMT 51.78310 0.49691 8,050 47 256 -384
2017-02-07 14:34:27 GMT 51.78346 0.49758 8,025 47 256 -384
2017-02-07 14:34:25 GMT 51.78108 0.49335 8,050 47 257 -704
2017-02-07 14:34:25 GMT 51.78108 0.49335 8,050 47 257 -640
2017-02-07 14:34:22 GMT 51.77889 0.48958 8,100 47 257 -832
2017-02-07 14:34:19 GMT 51.77637 0.48518 8,125 47 257 -896
2017-02-07 14:34:16 GMT 51.77426 0.48154 8,175 47 257 -960
2017-02-07 14:34:14 GMT 51.77271 0.47880 8,200 47 258 -960
2017-02-07 14:34:12 GMT 51.77032 0.47462 8,250 47 258 -960
2017-02-07 14:34:09 GMT 51.76856 0.47157 8,275 47 258 -960
2017-02-07 14:34:07 GMT 51.76702 0.46883 8,325 47 258 -1024
2017-02-07 14:34:05 GMT 51.76511 0.46551 8,350 47 258 -1024
2017-02-07 14:34:03 GMT 51.76341 0.46254 8,400 47 258 -1024
2017-02-07 14:34:01 GMT 51.76172 0.45964 8,425 47 258 -1024
2017-02-07 14:33:57 GMT 51.75924 0.45532 8,475 47 258 -1024
2017-02-07 14:33:55 GMT 51.75636 0.45029 8,550 47 258 -1024
2017-02-07 14:33:55 GMT 51.75636 0.45029 8,550 47 258 -1024
2017-02-07 14:33:53 GMT 51.75599 0.44960 8,550 47 258 -1024
2017-02-07 14:33:51 GMT 51.75403 0.44617 8,600 47 258 -1024
2017-02-07 14:33:49 GMT 51.75240 0.44342 8,625 47 258 -1024
2017-02-07 14:33:47 GMT 51.75050 0.44005 8,675 47 258 -1024
2017-02-07 14:33:45 GMT 51.74914 0.43778 8,700 47 258 -1088
2017-02-07 14:33:43 GMT 51.74747 0.43480 8,725 47 258 -1088
2017-02-07 14:33:43 GMT 51.74747 0.43480 8,725 47 258 -1152
2017-02-07 14:33:41 GMT 51.74616 0.43259 8,775 47 258 -1152
2017-02-07 14:33:39 GMT 51.74439 0.42946 8,800 47 258 -1152
2017-02-07 14:33:39 GMT 51.74405 0.42891 8,825 47 258 -1152
2017-02-07 14:33:37 GMT 51.74263 0.42641 8,850 47 258 -1152
2017-02-07 14:33:35 GMT 51.74011 0.42201 8,900 47 258 -1088
2017-02-07 14:33:35 GMT 51.74011 0.42201 8,900 47 258 -1088
2017-02-07 14:33:33 GMT 51.73874 0.41971 8,950 47 258 -1024
2017-02-07 14:33:33 GMT 51.73874 0.41971 8,950 47 258 -1024
2017-02-07 14:33:31 GMT 51.73797 0.41832 8,950 46 258 -1024
2017-02-07 14:33:29 GMT 51.73544 0.41399 9,025 46 258 -960
2017-02-07 14:33:29 GMT 51.73544 0.41399 9,025 46 259 -896
2017-02-07 14:33:29 GMT 51.73581 0.41458 9,000 46 259 -896
2017-02-07 14:33:27 GMT 51.73421 0.41184 9,050 46 259 -896
2017-02-07 14:33:25 GMT 51.73210 0.40828 9,075 45 259 -768
2017-02-07 14:33:23 GMT 51.73100 0.40635 9,100 45 259 -704
2017-02-07 14:33:21 GMT 51.72936 0.40360 9,125 44 259 -640
2017-02-07 14:33:21 GMT 51.72936 0.40360 9,125 41 259 -448
2017-02-07 14:33:19 GMT 51.72675 0.39940 9,175 43 259 -576
2017-02-07 14:33:17 GMT 51.72629 0.39879 9,175 40 259 -320
2017-02-07 14:33:17 GMT 51.72629 0.39879 9,175 40 259 -320
2017-02-07 14:33:15 GMT 51.72312 0.39429 9,250 26 256 -256
2017-02-07 14:33:13 GMT 51.72162 0.39246 9,275 32 258 -256
2017-02-07 14:33:11 GMT 51.72015 0.39083 9,300 28 256 -256
2017-02-07 14:33:09 GMT 51.71805 0.38875 9,325 18 254 -448
2017-02-07 14:33:07 GMT 51.71576 0.38697 9,375 14 253 -576
2017-02-07 14:33:05 GMT 51.71469 0.38620 9,375 18 254 -448
2017-02-07 14:33:02 GMT 51.71037 0.38376 9,475 8 251 -832
2017-02-07 14:33:00 GMT 51.70813 0.38300 9,500 5 251 -896
2017-02-07 14:33:00 GMT 51.70813 0.38300 9,500 7 251 -896
2017-02-07 14:32:56 GMT 51.70334 0.38200 9,600 3 250 -1024
2017-02-07 14:32:54 GMT 51.70092 0.38170 9,650 2 250 -1088
2017-02-07 14:32:52 GMT 51.69923 0.38163 9,675 2 250 -1152
2017-02-07 14:32:50 GMT 51.69603 0.38139 9,725 2 250 -1216
2017-02-07 14:32:50 GMT 51.69603 0.38139 9,725 2 250 -1216
2017-02-07 14:32:47 GMT 51.69260 0.38118 9,800 1 250 -1152
2017-02-07 14:32:45 GMT 51.69076 0.38111 9,825 1 250 -1088
2017-02-07 14:32:43 GMT 51.68834 0.38096 9,850 1 250 -768
2017-02-07 14:32:41 GMT 51.68601 0.38081 9,900 1 250 -896
2017-02-07 14:32:39 GMT 51.68381 0.38066 9,925 1 250 -704
2017-02-07 14:32:39 GMT 51.68381 0.38066 9,925 1 250 -704
2017-02-07 14:32:37 GMT 51.68070 0.38051 9,950 1 251 -448
2017-02-07 14:32:37 GMT 51.68166 0.38059 9,950 1 251 -576
2017-02-07 14:32:35 GMT 51.67773 0.38032 9,975 1 251 -384
2017-02-07 14:32:35 GMT 51.67831 0.38036 9,975 1 251 -384
2017-02-07 14:32:32 GMT 51.67536 0.38025 10,000 1 252 -192
2017-02-07 14:32:32 GMT 51.67471 0.38017 10,000 1 252 -192
2017-02-07 14:32:30 GMT 51.67242 0.38010 10,000 1 252 -64
2017-02-07 14:32:28 GMT 51.67117 0.38002 10,025 1 251 -64
2017-02-07 14:32:28 GMT 51.67117 0.38002 10,025 0 251 0
2017-02-07 14:32:25 GMT 51.66637 0.37979 10,025 359 251 256
2017-02-07 14:32:23 GMT 51.66568 0.37987 10,025 359 251 256
2017-02-07 14:32:20 GMT 51.66190 0.37987 10,000 354 249 384
2017-02-07 14:32:18 GMT 51.65893 0.38032 10,000 351 248 320
2017-02-07 14:32:15 GMT 51.65602 0.38096 10,000 343 247 192
2017-02-07 14:32:13 GMT 51.65427 0.38162 10,000 343 247 192
2017-02-07 14:32:11 GMT 51.65176 0.38284 10,000 337 245 192
2017-02-07 14:32:09 GMT 51.64966 0.38414 10,000 331 245 256
2017-02-07 14:32:07 GMT 51.64761 0.38559 10,000 326 244 192
2017-02-07 14:32:07 GMT 51.64761 0.38559 10,000 329 244 256
2017-02-07 14:32:03 GMT 51.64284 0.39031 9,975 318 244 -128
2017-02-07 14:32:01 GMT 51.64142 0.39202 9,975 314 243 -256
2017-02-07 14:31:59 GMT 51.63940 0.39521 9,975 311 243 -320
2017-02-07 14:31:57 GMT 51.63803 0.39751 9,975 308 242 -320
2017-02-07 14:31:55 GMT 51.63723 0.39909 10,000 304 241 -192
2017-02-07 14:31:52 GMT 51.63486 0.40428 10,000 302 241 -64
2017-02-07 14:31:50 GMT 51.63337 0.40817 10,000 301 241 -64
2017-02-07 14:31:48 GMT 51.63225 0.41115 10,000 301 241 -64
2017-02-07 14:31:45 GMT 51.63104 0.41435 10,000 301 240 -64
2017-02-07 14:31:45 GMT 51.63132 0.41367 10,000 301 240 -64
2017-02-07 14:31:43 GMT 51.62997 0.41733 10,000 301 240 -64
2017-02-07 14:31:41 GMT 51.62860 0.42112 10,000 301 240 0
2017-02-07 14:31:41 GMT 51.62860 0.42112 10,000 301 240 0
2017-02-07 14:31:39 GMT 51.62750 0.42409 10,000 301 240 0
2017-02-07 14:31:37 GMT 51.62631 0.42728 10,000 301 240 0
2017-02-07 14:31:35 GMT 51.62485 0.43121 10,000 301 239 -64
2017-02-07 14:31:33 GMT 51.62424 0.43289 10,000 301 239 -64
2017-02-07 14:31:31 GMT 51.62251 0.43752 10,000 301 238 -64
2017-02-07 14:31:29 GMT 51.62151 0.44027 10,000 301 238 -64
2017-02-07 14:31:27 GMT 51.62032 0.44354 10,025 301 238 -128
2017-02-07 14:31:27 GMT 51.62103 0.44151 10,000 301 238 -128
2017-02-07 14:31:25 GMT 51.61940 0.44606 10,025 301 238 -128
2017-02-07 14:31:23 GMT 51.61830 0.44910 10,025 301 238 -128
2017-02-07 14:31:21 GMT 51.61711 0.45230 10,025 301 238 -128
2017-02-07 14:31:21 GMT 51.61711 0.45230 10,025 301 238 -128
2017-02-07 14:31:19 GMT 51.61601 0.45526 10,025 301 238 -128
2017-02-07 14:31:17 GMT 51.61510 0.45771 10,025 301 238 -128
2017-02-07 14:31:15 GMT 51.61382 0.46128 10,025 301 239 -192
2017-02-07 14:31:13 GMT 51.61267 0.46425 10,025 301 239 -320
2017-02-07 14:31:11 GMT 51.61191 0.46631 10,050 301 239 -384
2017-02-07 14:31:09 GMT 51.61065 0.46974 10,050 302 239 -704
2017-02-07 14:31:07 GMT 51.60951 0.47286 10,075 302 239 -896
2017-02-07 14:31:04 GMT 51.60739 0.47836 10,125 302 240 -896
2017-02-07 14:31:01 GMT 51.60603 0.48199 10,175 301 241 -832
2017-02-07 14:30:59 GMT 51.60448 0.48614 10,200 300 241 -832
2017-02-07 14:30:57 GMT 51.60390 0.48767 10,225 300 241 -832
2017-02-07 14:30:56 GMT 51.60274 0.49088 10,250 298 241 -896
2017-02-07 14:30:55 GMT 51.60274 0.49088 10,250 299 242 -896
2017-02-07 14:30:53 GMT 51.60092 0.49614 10,300 292 242 -1152
2017-02-07 14:30:49 GMT 51.59901 0.50270 10,350 289 241 -1280
2017-02-07 14:30:49 GMT 51.59926 0.50173 10,350 290 242 -1216
2017-02-07 14:30:47 GMT 51.59878 0.50369 10,350 289 241 -1280
2017-02-07 14:30:45 GMT 51.59775 0.50790 10,400 287 241 -1344
2017-02-07 14:30:42 GMT 51.59638 0.51532 10,500 284 241 -1216
2017-02-07 14:30:39 GMT 51.59587 0.51873 10,525 283 241 -1088
2017-02-07 14:30:37 GMT 51.59519 0.52338 10,575 283 241 -1088
2017-02-07 14:30:36 GMT 51.59537 0.52237 10,575 283 241 -1088
2017-02-07 14:30:34 GMT 51.59464 0.52765 10,625 283 240 -1152
2017-02-07 14:30:31 GMT 51.59390 0.53284 10,675 283 240 -1216
2017-02-07 14:30:29 GMT 51.59335 0.53692 10,725 283 240 -1216
2017-02-07 14:30:27 GMT 51.59299 0.53937 10,750 283 240 -1152
2017-02-07 14:30:24 GMT 51.59239 0.54390 10,800 283 240 -960
2017-02-07 14:30:22 GMT 51.59180 0.54817 10,850 283 240 -960
2017-02-07 14:30:18 GMT 51.59091 0.55466 10,900 283 241 -768
2017-02-07 14:30:16 GMT 51.59026 0.55916 10,950 283 242 -512
2017-02-07 14:30:15 GMT 51.59026 0.55916 10,950 283 242 -576
2017-02-07 14:30:13 GMT 51.58975 0.56297 10,975 283 243 -192
2017-02-07 14:30:11 GMT 51.58919 0.56679 10,975 283 244 0
2017-02-07 14:30:09 GMT 51.58868 0.57040 11,000 283 246 64
2017-02-07 14:30:07 GMT 51.58821 0.57388 11,000 283 246 0
2017-02-07 14:30:05 GMT 51.58754 0.57879 11,000 283 249 0
2017-02-07 14:30:03 GMT 51.58708 0.58183 11,000 283 250 0
2017-02-07 14:30:00 GMT 51.58608 0.58896 11,000 283 252 64
2017-02-07 14:29:58 GMT 51.58557 0.59252 11,000 283 253 64
2017-02-07 14:29:56 GMT 51.58533 0.59418 11,000 283 257 64
2017-02-07 14:29:54 GMT 51.58477 0.59815 11,000 283 258 64
2017-02-07 14:29:52 GMT 51.58402 0.60358 10,975 283 259 64
2017-02-07 14:29:50 GMT 51.58370 0.60570 11,000 283 261 0
2017-02-07 14:29:47 GMT 51.58292 0.61123 10,975 283 263 0
2017-02-07 14:29:45 GMT 51.58223 0.61612 11,000 283 265 0
2017-02-07 14:29:43 GMT 51.58182 0.61902 11,000 283 267 0
2017-02-07 14:29:43 GMT 51.58163 0.62006 11,000 283 267 0
2017-02-07 14:29:40 GMT 51.58100 0.62477 11,000 283 270 64
2017-02-07 14:29:37 GMT 51.58044 0.62882 11,000 283 271 64
2017-02-07 14:29:35 GMT 51.57979 0.63339 11,000 283 273 0
2017-02-07 14:29:35 GMT 51.57962 0.63453 11,000 283 274 0
2017-02-07 14:29:33 GMT 51.57912 0.63840 11,000 283 275 0
2017-02-07 14:29:31 GMT 51.57857 0.64226 11,000 282 277 -64
2017-02-07 14:29:29 GMT 51.57806 0.64619 11,000 282 278 -128
2017-02-07 14:29:29 GMT 51.57806 0.64619 11,000 282 278 -128
2017-02-07 14:29:27 GMT 51.57747 0.65050 11,000 282 281 -64
2017-02-07 14:29:25 GMT 51.57709 0.65369 11,000 282 281 -64
2017-02-07 14:29:23 GMT 51.57637 0.65925 11,000 281 284 64
2017-02-07 14:29:21 GMT 51.57596 0.66274 11,000 280 287 64
2017-02-07 14:29:19 GMT 51.57532 0.66816 11,000 279 288 0
2017-02-07 14:29:17 GMT 51.57509 0.67017 11,000 278 289 -64
2017-02-07 14:29:13 GMT 51.57426 0.68026 10,975 272 294 -384
2017-02-07 14:29:11 GMT 51.57420 0.68336 10,975 268 297 -448
2017-02-07 14:29:09 GMT 51.57413 0.68917 10,975 267 298 -512
2017-02-07 14:29:07 GMT 51.57417 0.69229 10,975 264 300 -512
2017-02-07 14:29:04 GMT 51.57462 0.69954 11,000 261 302 -384
2017-02-07 14:29:02 GMT 51.57491 0.70290 11,000 260 304 -256
2017-02-07 14:29:00 GMT 51.57541 0.70750 11,000 260 305 -192
2017-02-07 14:29:00 GMT 51.57541 0.70750 11,000 260 306 -128
2017-02-07 14:28:58 GMT 51.57620 0.71442 11,000 260 308 -64
2017-02-07 14:28:57 GMT 51.57611 0.71342 11,000 260 308 -64
2017-02-07 14:28:54 GMT 51.57704 0.72128 11,000 260 320 0
2017-02-07 14:28:54 GMT 51.57704 0.72128 11,000 260 311 128
2017-02-07 14:28:54 GMT 51.57704 0.72128 11,000 260 311 128
2017-02-07 14:28:54 GMT 51.57704 0.72128 11,000 260 311 128
2017-02-07 14:28:52 GMT 51.57760 0.72594 11,000 260 315 0
2017-02-07 14:28:50 GMT 51.57848 0.73304 11,000 260 317 0
2017-02-07 14:28:50 GMT 51.57820 0.73082 11,000 260 316 0
2017-02-07 14:28:49 GMT 51.57830 0.73189 11,000 260 316 0
2017-02-07 14:28:47 GMT 51.57890 0.73669 11,000 260 318 0
2017-02-07 14:28:45 GMT 51.57953 0.74202 11,000 260 323 0
2017-02-07 14:28:43 GMT 51.58008 0.74670 11,000 260 323 0
2017-02-07 14:28:39 GMT 51.58136 0.75776 11,000 260 328 -128
2017-02-07 14:28:37 GMT 51.58182 0.76147 11,000 260 329 -128
2017-02-07 14:28:36 GMT 51.58207 0.76370 11,000 260 330 -128
2017-02-07 14:28:36 GMT 51.58182 0.76147 11,000 260 333 -192
2017-02-07 14:28:34 GMT 51.58272 0.76927 11,025 260 332 -192
2017-02-07 14:28:32 GMT 51.58314 0.77286 11,025 260 334 -128
2017-02-07 14:28:29 GMT 51.58398 0.77995 11,025 260 337 -128
2017-02-07 14:28:27 GMT 51.58466 0.78545 11,025 260 339 -128
2017-02-07 14:28:25 GMT 51.58521 0.79012 11,025 260 341 -256
2017-02-07 14:28:22 GMT 51.58616 0.79857 11,050 260 344 -512
2017-02-07 14:28:19 GMT 51.58717 0.80690 11,075 260 346 -832
2017-02-07 14:28:16 GMT 51.58812 0.81482 11,125 260 348 -1088
2017-02-07 14:28:15 GMT 51.58812 0.81482 11,125 260 348 -1088
2017-02-07 14:28:13 GMT 51.58868 0.81963 11,150 260 349 -1216
2017-02-07 14:28:11 GMT 51.58928 0.82512 11,200 260 350 -1472
2017-02-07 14:28:08 GMT 51.59040 0.83443 11,300 260 352 -1728
2017-02-07 14:28:05 GMT 51.59139 0.84276 11,400 260 352 -1984
2017-02-07 14:28:03 GMT 51.59152 0.84412 11,400 260 352 -2048
2017-02-07 14:28:03 GMT 51.59152 0.84412 11,400 260 352 -2048
2017-02-07 14:28:01 GMT 51.59244 0.85218 11,525 260 353 -2048
2017-02-07 14:27:59 GMT 51.59291 0.85586 11,575 260 353 -2048
2017-02-07 14:27:56 GMT 51.59372 0.86280 11,650 260 354 -2048
2017-02-07 14:27:54 GMT 51.59468 0.87090 11,775 260 353 -2112
2017-02-07 14:27:52 GMT 51.59500 0.87371 11,800 260 353 -2112
2017-02-07 14:27:52 GMT 51.59500 0.87371 11,800 260 354 -2240
2017-02-07 14:27:50 GMT 51.59589 0.88142 11,925 260 354 -2240
2017-02-07 14:27:47 GMT 51.59687 0.89012 12,050 260 354 -2240
2017-02-07 14:27:45 GMT 51.59701 0.89165 12,075 261 354 -2112
2017-02-07 14:27:43 GMT 51.59775 0.89813 12,175 261 355 -2048
2017-02-07 14:27:41 GMT 51.59804 0.90073 12,200 261 355 -2048
2017-02-07 14:27:38 GMT 51.59929 0.91225 12,350 261 355 -2048
2017-02-07 14:27:36 GMT 51.59985 0.91759 12,425 261 355 -2176
2017-02-07 14:27:34 GMT 51.60041 0.92293 12,500 261 356 -2048
2017-02-07 14:27:32 GMT 51.60083 0.92697 12,575 261 356 -2176
2017-02-07 14:27:29 GMT 51.60178 0.93606 12,700 261 356 -2048
2017-02-07 14:27:27 GMT 51.60214 0.93955 12,750 261 357 -1984
2017-02-07 14:27:25 GMT 51.60283 0.94624 12,825 261 357 -2048
2017-02-07 14:27:22 GMT 51.60338 0.95128 12,900 261 357 -2176
2017-02-07 14:27:21 GMT 51.60393 0.95640 12,950 262 359 -2176
2017-02-07 14:27:20 GMT 51.60393 0.95640 12,950 261 357 -2176
2017-02-07 14:27:17 GMT 51.60489 0.96613 13,100 261 358 -2240
2017-02-07 14:27:15 GMT 51.60548 0.97170 13,175 261 358 -2240
2017-02-07 14:27:13 GMT 51.60608 0.97771 13,275 262 359 -2176
2017-02-07 14:27:11 GMT 51.60645 0.98127 13,325 262 359 -2176
2017-02-07 14:27:09 GMT 51.60688 0.98579 13,375 262 359 -2176
2017-02-07 14:27:07 GMT 51.60730 0.99014 13,450 262 359 -2176
2017-02-07 14:27:05 GMT 51.60795 0.99663 13,525 262 360 -2112
2017-02-07 14:27:05 GMT 51.60809 0.99812 13,550 262 360 -2048
2017-02-07 14:27:03 GMT 51.60846 1.00212 13,600 262 360 -2048
2017-02-07 14:27:01 GMT 51.60910 1.00889 13,700 262 361 -1920
2017-02-07 14:26:59 GMT 51.60951 1.01282 13,750 262 361 -1920
2017-02-07 14:26:57 GMT 51.61011 1.01935 13,825 262 362 -1792
2017-02-07 14:26:54 GMT 51.61093 1.02821 13,925 262 362 -1792
2017-02-07 14:26:51 GMT 51.61162 1.03524 14,025 262 363 -1920
2017-02-07 14:26:48 GMT 51.61233 1.04324 14,100 262 363 -2368
2017-02-07 14:26:48 GMT 51.61233 1.04324 14,100 262 363 -2496
2017-02-07 14:26:44 GMT 51.61335 1.05431 14,275 262 363 -2816
2017-02-07 14:26:42 GMT 51.61372 1.05850 14,350 262 362 -3136
2017-02-07 14:26:40 GMT 51.61414 1.06263 14,425 262 361 -3200
2017-02-07 14:26:37 GMT 51.61521 1.07430 14,675 262 360 -3264
2017-02-07 14:26:37 GMT 51.61510 1.07295 14,650 262 360 -3264
2017-02-07 14:26:37 GMT 51.61510 1.07295 14,650 262 360 -3264
2017-02-07 14:26:35 GMT 51.61535 1.07574 14,700 262 360 -3264
2017-02-07 14:26:33 GMT 51.61591 1.08208 14,825 262 357 -3520
2017-02-07 14:26:33 GMT 51.61582 1.08078 14,800 262 357 -3456
2017-02-07 14:26:31 GMT 51.61656 1.08920 14,975 262 356 -3520
2017-02-07 14:26:31 GMT 51.61656 1.08920 14,975 262 356 -3520
2017-02-07 14:26:29 GMT 51.61711 1.09470 15,100 262 355 -3520
2017-02-07 14:26:25 GMT 51.61789 1.10323 15,300 262 353 -3200
2017-02-07 14:26:23 GMT 51.61861 1.11099 15,450 262 353 -2880
2017-02-07 14:26:21 GMT 51.61894 1.11474 15,525 262 353 -2560
2017-02-07 14:26:20 GMT 51.61908 1.11618 15,575 262 353 -2560
2017-02-07 14:26:19 GMT 51.61949 1.12053 15,650 262 353 -2240
2017-02-07 14:26:17 GMT 51.61986 1.12432 15,700 262 353 -2176
2017-02-07 14:26:15 GMT 51.62045 1.13063 15,800 262 354 -1984
2017-02-07 14:26:12 GMT 51.62126 1.13907 15,900 262 354 -1920
2017-02-07 14:26:10 GMT 51.62151 1.14169 15,925 262 354 -1984
2017-02-07 14:26:08 GMT 51.62215 1.14830 16,025 262 354 -1920
2017-02-07 14:26:06 GMT 51.62242 1.15097 16,050 262 354 -1920
2017-02-07 14:26:04 GMT 51.62317 1.15868 16,150 262 355 -1856
2017-02-07 14:26:02 GMT 51.62347 1.16151 16,175 262 355 -1856
2017-02-07 14:26:00 GMT 51.62415 1.16829 16,275 262 356 -1792
2017-02-07 14:25:58 GMT 51.62466 1.17378 16,325 262 355 -1728
2017-02-07 14:25:55 GMT 51.62531 1.18080 16,425 263 356 -1600
2017-02-07 14:25:53 GMT 51.62604 1.18905 16,500 264 357 -1536
2017-02-07 14:25:53 GMT 51.62604 1.18905 16,500 264 358 -1472
2017-02-07 14:25:53 GMT 51.62604 1.18905 16,500 264 357 -1472
2017-02-07 14:25:51 GMT 51.62625 1.19141 16,525 264 358 -1472
2017-02-07 14:25:48 GMT 51.62699 1.20140 16,650 267 360 -1216
2017-02-07 14:25:47 GMT 51.62699 1.20140 16,650 266 360 -1280
2017-02-07 14:25:45 GMT 51.62736 1.20827 16,700 267 360 -1216
2017-02-07 14:25:42 GMT 51.62782 1.21918 16,800 269 363 -896
2017-02-07 14:25:40 GMT 51.62782 1.22030 16,800 269 363 -896
2017-02-07 14:25:38 GMT 51.62801 1.22673 16,850 270 365 -768
2017-02-07 14:25:36 GMT 51.62806 1.23421 16,900 271 368 -640
2017-02-07 14:25:33 GMT 51.62811 1.23787 16,900 272 370 -640
2017-02-07 14:25:31 GMT 51.62797 1.24893 16,975 272 373 -1024
2017-02-07 14:25:29 GMT 51.62787 1.25318 17,000 272 373 -1216
2017-02-07 14:25:26 GMT 51.62778 1.25734 17,025 272 374 -1408
2017-02-07 14:25:26 GMT 51.62778 1.25734 17,025 272 374 -1728
2017-02-07 14:25:24 GMT 51.62764 1.26439 17,075 272 375 -2048
2017-02-07 14:25:20 GMT 51.62732 1.27954 17,275 272 375 -2304
2017-02-07 14:25:18 GMT 51.62727 1.28242 17,325 272 375 -2304
2017-02-07 14:25:18 GMT 51.62727 1.28080 17,300 272 375 -2240
2017-02-07 14:25:18 GMT 51.62727 1.28080 17,300 272 375 -2304
2017-02-07 14:25:16 GMT 51.62713 1.28914 17,400 272 376 -2240
2017-02-07 14:25:13 GMT 51.62699 1.29456 17,475 272 376 -2176
2017-02-07 14:25:09 GMT 51.62668 1.30908 17,675 272 377 -2048
2017-02-07 14:25:07 GMT 51.62663 1.31175 17,700 272 378 -1984
2017-02-07 14:25:05 GMT 51.62649 1.31903 17,800 272 378 -1984
2017-02-07 14:25:03 GMT 51.62638 1.32271 17,850 272 378 -1984
2017-02-07 14:24:58 GMT 51.62601 1.34026 18,050 273 379 -1920
2017-02-07 14:24:58 GMT 51.62601 1.34026 18,050 273 385 -2304
2017-02-07 14:24:56 GMT 51.62585 1.34620 18,125 273 380 -1856
2017-02-07 14:24:54 GMT 51.62578 1.35025 18,175 273 382 -1792
2017-02-07 14:24:54 GMT 51.62578 1.35025 18,175 273 381 -1856
2017-02-07 14:24:52 GMT 51.62572 1.35317 18,200 273 381 -1792
2017-02-07 14:24:49 GMT 51.62545 1.36276 18,300 273 383 -1792
2017-02-07 14:24:47 GMT 51.62531 1.36833 18,375 273 384 -2048
2017-02-07 14:24:45 GMT 51.62517 1.37375 18,425 273 383 -1856
2017-02-07 14:24:42 GMT 51.62494 1.38279 18,525 273 384 -2048
2017-02-07 14:24:40 GMT 51.62476 1.38843 18,600 273 385 -2304
2017-02-07 14:24:36 GMT 51.62443 1.40144 18,775 272 385 -2560
2017-02-07 14:24:34 GMT 51.62429 1.40755 18,875 269 383 -2880
2017-02-07 14:24:32 GMT 51.62416 1.41501 18,975 271 384 -2816
2017-02-07 14:24:27 GMT 51.62412 1.42600 19,150 269 383 -2880
2017-02-07 14:24:25 GMT 51.62420 1.43143 19,250 269 383 -2880
2017-02-07 14:24:23 GMT 51.62424 1.43722 19,350 268 382 -2880
2017-02-07 14:24:21 GMT 51.62438 1.44211 19,425 268 382 -2880
2017-02-07 14:24:18 GMT 51.62466 1.45435 19,625 268 381 -2624
2017-02-07 14:24:16 GMT 51.62471 1.45569 19,650 268 381 -2624
2017-02-07 14:24:14 GMT 51.62489 1.46259 19,750 268 381 -2496
2017-02-07 14:24:14 GMT 51.62489 1.46259 19,750 268 381 -2496
2017-02-07 14:24:12 GMT 51.62508 1.46816 19,850 268 381 -2432
2017-02-07 14:24:10 GMT 51.62521 1.47284 19,925 268 381 -2432
2017-02-07 14:24:06 GMT 51.62555 1.48552 20,100 268 382 -2560
2017-02-07 14:24:03 GMT 51.62573 1.49361 20,225 268 381 -2688
2017-02-07 14:24:01 GMT 51.62592 1.49880 20,300 267 381 -2944
2017-02-07 14:23:59 GMT 51.62611 1.50474 20,400 267 381 -3008
2017-02-07 14:23:59 GMT 51.62611 1.50474 20,400 267 381 -3008
2017-02-07 14:23:57 GMT 51.62640 1.51307 20,575 266 380 -3072
2017-02-07 14:23:55 GMT 51.62653 1.51611 20,625 265 379 -2560
2017-02-07 14:23:53 GMT 51.62686 1.52346 20,750 265 379 -2752
2017-02-07 14:23:51 GMT 51.62727 1.53069 20,875 265 379 -2176
2017-02-07 14:23:50 GMT 51.62746 1.53393 20,925 265 379 -2176
2017-02-07 14:23:49 GMT 51.62746 1.53393 20,925 265 379 -2176
2017-02-07 14:23:49 GMT 51.62736 1.53236 20,900 264 381 -1792
2017-02-07 14:23:47 GMT 51.62774 1.53847 20,975 265 379 -2176
2017-02-07 14:23:45 GMT 51.62801 1.54297 21,025 264 381 -1472
2017-02-07 14:23:43 GMT 51.62874 1.55278 21,100 263 384 -1152
2017-02-07 14:23:41 GMT 51.62911 1.55739 21,125 263 389 -1792
2017-02-07 14:23:39 GMT 51.62974 1.56509 21,175 262 387 -1472
2017-02-07 14:23:37 GMT 51.62974 1.56509 21,175 263 386 -1280
2017-02-07 14:23:35 GMT 51.63039 1.57242 21,225 262 387 -1536
2017-02-07 14:23:32 GMT 51.63137 1.58348 21,350 263 389 -1792
2017-02-07 14:23:30 GMT 51.63183 1.58890 21,400 263 389 -1792
2017-02-07 14:23:28 GMT 51.63225 1.59348 21,450 263 390 -1856
2017-02-07 14:23:28 GMT 51.63249 1.59673 21,475 263 390 -1856
2017-02-07 14:23:26 GMT 51.63249 1.59673 21,475 263 390 -1856
2017-02-07 14:23:26 GMT 51.63263 1.59799 21,500 263 390 -1856
2017-02-07 14:23:24 GMT 51.63313 1.60386 21,550 263 391 -1984
2017-02-07 14:23:22 GMT 51.63388 1.61224 21,650 263 392 -2176
2017-02-07 14:23:20 GMT 51.63414 1.61499 21,700 263 392 -2368
2017-02-07 14:23:18 GMT 51.63506 1.62553 21,850 263 393 -2624
2017-02-07 14:23:14 GMT 51.63565 1.63258 21,950 263 392 -3072
2017-02-07 14:23:14 GMT 51.63565 1.63258 21,950 263 393 -2944
2017-02-07 14:23:10 GMT 51.63686 1.64703 22,200 263 392 -3072
2017-02-07 14:23:08 GMT 51.63732 1.65268 22,300 263 392 -3136
2017-02-07 14:23:06 GMT 51.63779 1.65817 22,400 263 391 -3136
2017-02-07 14:23:03 GMT 51.63826 1.66389 22,525 263 391 -2944
2017-02-07 14:23:01 GMT 51.63877 1.67000 22,625 263 391 -2560
2017-02-07 14:22:59 GMT 51.63931 1.67735 22,750 263 391 -2560
2017-02-07 14:22:57 GMT 51.63961 1.68068 22,800 263 390 -2368
2017-02-07 14:22:55 GMT 51.64023 1.68855 22,925 263 390 -2304
2017-02-07 14:22:53 GMT 51.64049 1.69235 22,975 263 390 -2240
2017-02-07 14:22:50 GMT 51.64160 1.70652 23,150 263 391 -1728
2017-02-07 14:22:46 GMT 51.64215 1.71387 23,225 264 392 -1536
2017-02-07 14:22:44 GMT 51.64272 1.72127 23,300 264 393 -2240
2017-02-07 14:22:42 GMT 51.64307 1.72567 23,350 264 392 -1984
2017-02-07 14:22:39 GMT 51.64370 1.73401 23,425 264 393 -2112
2017-02-07 14:22:39 GMT 51.64361 1.73271 23,425 264 393 -2240
2017-02-07 14:22:37 GMT 51.64421 1.74081 23,525 264 393 -2496
2017-02-07 14:22:37 GMT 51.64421 1.74081 23,525 264 393 -2496
2017-02-07 14:22:35 GMT 51.64449 1.74416 23,550 264 393 -2496
2017-02-07 14:22:33 GMT 51.64526 1.75462 23,700 264 393 -2496
2017-02-07 14:22:31 GMT 51.64558 1.75878 23,775 263 394 -2432
2017-02-07 14:22:28 GMT 51.64613 1.76598 23,875 263 394 -2432
2017-02-07 14:22:26 GMT 51.64677 1.77383 24,000 263 394 -2432
2017-02-07 14:22:24 GMT 51.64710 1.77834 24,050 263 394 -2432
2017-02-07 14:22:23 GMT 51.64746 1.78283 24,125 263 394 -2496
2017-02-07 14:22:23 GMT 51.64746 1.78283 24,125 263 394 -2432
2017-02-07 14:22:22 GMT 51.64771 1.78574 24,175 263 394 -2432
2017-02-07 14:22:20 GMT 51.64813 1.79108 24,250 263 394 -2496
2017-02-07 14:22:17 GMT 51.64879 1.79960 24,375 263 394 -2432
2017-02-07 14:22:15 GMT 51.64925 1.80547 24,450 263 394 -2368
2017-02-07 14:22:13 GMT 51.64966 1.81052 24,525 263 394 -2240
2017-02-07 14:22:11 GMT 51.65025 1.81764 24,625 263 394 -1920
2017-02-07 14:22:09 GMT 51.65066 1.82306 24,700 263 394 -1536
2017-02-07 14:22:07 GMT 51.65112 1.82870 24,775 263 397 -64
2017-02-07 14:22:04 GMT 51.65180 1.83716 24,850 263 395 -832
2017-02-07 14:22:03 GMT 51.65180 1.83716 24,850 263 395 -1216
2017-02-07 14:22:01 GMT 51.65250 1.84644 24,925 263 395 -832
2017-02-07 14:21:59 GMT 51.65300 1.85231 24,950 263 396 -576
2017-02-07 14:21:57 GMT 51.65341 1.85788 24,975 263 396 -256
2017-02-07 14:21:57 GMT 51.65329 1.85638 24,975 263 396 -384
2017-02-07 14:21:57 GMT 51.65350 1.85906 25,000 263 396 -256
2017-02-07 14:21:55 GMT 51.65404 1.86577 25,000 263 409 -768
2017-02-07 14:21:53 GMT 51.65418 1.86745 25,000 263 397 -64
2017-02-07 14:21:51 GMT 51.65478 1.87488 25,025 263 398 -64
2017-02-07 14:21:51 GMT 51.65450 1.87180 25,025 263 397 -64
2017-02-07 14:21:49 GMT 51.65501 1.87790 25,025 263 399 -128
2017-02-07 14:21:47 GMT 51.65584 1.88824 25,025 263 399 -128
2017-02-07 14:21:47 GMT 51.65595 1.88980 25,025 263 402 -128
2017-02-07 14:21:45 GMT 51.65620 1.89284 25,025 263 403 -128
2017-02-07 14:21:43 GMT 51.65671 1.89893 25,025 263 401 -128
2017-02-07 14:21:41 GMT 51.65692 1.90193 25,025 263 405 -192
2017-02-07 14:21:39 GMT 51.65772 1.91169 25,025 263 406 -256
2017-02-07 14:21:37 GMT 51.65832 1.91948 25,025 263 405 -192
2017-02-07 14:21:34 GMT 51.65868 1.92372 25,050 263 407 -384
2017-02-07 14:21:32 GMT 51.65944 1.93329 25,050 263 408 -512
2017-02-07 14:21:32 GMT 51.65944 1.93329 25,050 263 408 -448
2017-02-07 14:21:30 GMT 51.66000 1.94013 25,075 263 409 -576
2017-02-07 14:21:28 GMT 51.66037 1.94443 25,075 263 409 -704
2017-02-07 14:21:26 GMT 51.66096 1.95200 25,125 263 410 -832
2017-02-07 14:21:24 GMT 51.66130 1.95633 25,150 263 410 -1088
2017-02-07 14:21:21 GMT 51.66202 1.96529 25,200 263 410 -1280
2017-02-07 14:21:19 GMT 51.66228 1.96838 25,200 263 410 -1280
2017-02-07 14:21:19 GMT 51.66243 1.97012 25,225 263 411 -1664
2017-02-07 14:21:17 GMT 51.66289 1.97583 25,250 263 410 -1472
2017-02-07 14:21:15 GMT 51.66353 1.98348 25,325 263 411 -1728
2017-02-07 14:21:13 GMT 51.66389 1.98801 25,350 263 411 -1920
2017-02-07 14:21:10 GMT 51.66461 1.99722 25,450 263 411 -2112
2017-02-07 14:21:08 GMT 51.66536 2.00642 25,550 263 411 -2688
2017-02-07 14:21:05 GMT 51.66609 2.01569 25,675 263 411 -3136
2017-02-07 14:21:05 GMT 51.66586 2.01228 25,650 263 411 -2816
2017-02-07 14:21:03 GMT 51.66656 2.02141 25,775 263 411 -3264
2017-02-07 14:21:02 GMT 51.66656 2.02141 25,775 263 411 -3264
2017-02-07 14:21:01 GMT 51.66707 2.02721 25,875 263 411 -3264
2017-02-07 14:20:59 GMT 51.66733 2.03047 25,950 263 409 -3776
2017-02-07 14:20:57 GMT 51.66782 2.03628 26,050 262 409 -3840
2017-02-07 14:20:54 GMT 51.66861 2.04552 26,275 262 407 -3776
2017-02-07 14:20:52 GMT 51.66917 2.05170 26,400 260 407 -3328
2017-02-07 14:20:50 GMT 51.66962 2.05622 26,475 261 407 -3456
2017-02-07 14:20:48 GMT 51.67042 2.06390 26,625 260 407 -3008
2017-02-07 14:20:46 GMT 51.67108 2.06922 26,725 257 407 -2240
2017-02-07 14:20:44 GMT 51.67187 2.07558 26,800 257 407 -2304
2017-02-07 14:20:42 GMT 51.67275 2.08183 26,875 257 407 -2240
2017-02-07 14:20:40 GMT 51.67342 2.08629 26,925 254 408 -2304
2017-02-07 14:20:39 GMT 51.67442 2.09245 27,000 254 408 -2304
2017-02-07 14:20:38 GMT 51.67442 2.09245 27,000 254 408 -2304
2017-02-07 14:20:36 GMT 51.67596 2.10121 27,100 253 408 -2368
2017-02-07 14:20:33 GMT 51.67754 2.10945 27,200 252 409 -2432
2017-02-07 14:20:31 GMT 51.67820 2.11258 27,250 251 409 -2368
2017-02-07 14:20:29 GMT 51.67932 2.11769 27,325 250 409 -2368
2017-02-07 14:20:26 GMT 51.68133 2.12652 27,425 249 409 -1856
2017-02-07 14:20:24 GMT 51.68341 2.13524 27,550 249 409 -1856
2017-02-07 14:20:22 GMT 51.68490 2.14142 27,625 249 409 -1856
2017-02-07 14:20:19 GMT 51.68692 2.14983 27,750 249 410 -1472
2017-02-07 14:20:18 GMT 51.68692 2.14983 27,750 249 410 -1536
2017-02-07 14:20:16 GMT 51.68797 2.15428 27,775 249 410 -1344
2017-02-07 14:20:14 GMT 51.68974 2.16164 27,850 249 410 -1152
2017-02-07 14:20:12 GMT 51.69072 2.16572 27,875 249 410 -960
2017-02-07 14:20:10 GMT 51.69241 2.17270 27,925 249 410 -384
2017-02-07 14:20:08 GMT 51.69440 2.18094 27,950 249 410 -384
2017-02-07 14:20:05 GMT 51.69658 2.18999 27,975 249 410 -128
2017-02-07 14:20:03 GMT 51.69731 2.19311 27,975 249 410 -64
2017-02-07 14:20:01 GMT 51.69952 2.20238 28,000 249 409 0
2017-02-07 14:20:00 GMT 51.69952 2.20238 28,000 249 409 0
2017-02-07 14:19:58 GMT 51.70056 2.20655 28,000 249 409 0
2017-02-07 14:19:56 GMT 51.70294 2.21649 28,000 249 409 -64
2017-02-07 14:19:54 GMT 51.70408 2.22122 28,000 249 409 -128
2017-02-07 14:19:52 GMT 51.70538 2.22664 28,000 249 409 -64
2017-02-07 14:19:51 GMT 51.70538 2.22664 28,000 249 409 -128
2017-02-07 14:19:49 GMT 51.70645 2.23099 28,000 249 409 -128
2017-02-07 14:19:47 GMT 51.70799 2.23747 28,000 249 408 -192
2017-02-07 14:19:45 GMT 51.70967 2.24440 28,000 249 408 -256
2017-02-07 14:19:43 GMT 51.71141 2.25160 28,000 249 408 -384
2017-02-07 14:19:40 GMT 51.71344 2.25990 28,025 249 408 -256
2017-02-07 14:19:40 GMT 51.71379 2.26148 28,025 249 408 -256
2017-02-07 14:19:38 GMT 51.71416 2.26296 28,025 249 408 -256
2017-02-07 14:19:36 GMT 51.71558 2.26890 28,050 249 408 -256
2017-02-07 14:19:34 GMT 51.71704 2.27476 28,050 249 408 -320
2017-02-07 14:19:32 GMT 51.71851 2.28096 28,050 249 408 -512
2017-02-07 14:19:30 GMT 51.71995 2.28691 28,075 249 408 -512
2017-02-07 14:19:28 GMT 51.72070 2.29006 28,075 249 409 -576
2017-02-07 14:19:26 GMT 51.72212 2.29585 28,100 249 410 -704
2017-02-07 14:19:24 GMT 51.72424 2.30454 28,125 249 410 -896
2017-02-07 14:19:21 GMT 51.72610 2.31232 28,150 249 413 -1152
2017-02-07 14:19:19 GMT 51.72752 2.31812 28,200 249 413 -1280
2017-02-07 14:19:19 GMT 51.72752 2.31812 28,200 249 414 -1536
2017-02-07 14:19:17 GMT 51.72852 2.32224 28,225 249 414 -1600
2017-02-07 14:19:15 GMT 51.72996 2.32819 28,275 249 415 -1728
2017-02-07 14:19:12 GMT 51.73302 2.34090 28,400 249 419 -1728
2017-02-07 14:19:10 GMT 51.73338 2.34254 28,425 249 417 -1600
2017-02-07 14:19:08 GMT 51.73471 2.34803 28,475 249 419 -1664
2017-02-07 14:19:06 GMT 51.73650 2.35530 28,550 249 419 -1664
2017-02-07 14:19:04 GMT 51.73755 2.35976 28,575 249 420 -1728
2017-02-07 14:19:02 GMT 51.73932 2.36717 28,650 249 421 -1920
2017-02-07 14:19:00 GMT 51.74109 2.37450 28,725 250 421 -2048
2017-02-07 14:18:57 GMT 51.74313 2.38314 28,850 250 422 -2048
2017-02-07 14:18:55 GMT 51.74393 2.38640 28,875 250 423 -1920
2017-02-07 14:18:53 GMT 51.74523 2.39197 28,950 250 425 -1728
2017-02-07 14:18:51 GMT 51.74735 2.40081 29,050 250 426 -1728
2017-02-07 14:18:49 GMT 51.74840 2.40519 29,100 250 426 -1728
2017-02-07 14:18:49 GMT 51.74867 2.40645 29,100 250 426 -1728
2017-02-07 14:18:47 GMT 51.74975 2.41089 29,150 250 426 -1792
2017-02-07 14:18:45 GMT 51.75082 2.41554 29,200 250 428 -2176
2017-02-07 14:18:45 GMT 51.75156 2.41862 29,175 250 426 -1856
2017-02-07 14:18:43 GMT 51.75231 2.42172 29,250 250 428 -2240
2017-02-07 14:18:41 GMT 51.75458 2.43139 29,375 250 428 -2304
2017-02-07 14:18:39 GMT 51.75577 2.43644 29,450 250 429 -2368
2017-02-07 14:18:38 GMT 51.75577 2.43644 29,450 250 430 -2304
2017-02-07 14:18:36 GMT 51.75762 2.44423 29,550 250 429 -2368
2017-02-07 14:18:34 GMT 51.75943 2.45201 29,650 250 429 -2368
2017-02-07 14:18:32 GMT 51.76050 2.45651 29,725 250 430 -2304
2017-02-07 14:18:30 GMT 51.76259 2.46547 29,825 250 431 -2240
2017-02-07 14:18:28 GMT 51.76334 2.46864 29,875 250 431 -2240
2017-02-07 14:18:26 GMT 51.76483 2.47505 29,950 250 432 -2176
2017-02-07 14:18:24 GMT 51.76579 2.47920 30,000 250 434 -2048
2017-02-07 14:18:21 GMT 51.76813 2.48900 30,125 250 432 -2176
2017-02-07 14:18:19 GMT 51.77032 2.49847 30,250 250 434 -2048
2017-02-07 14:18:17 GMT 51.77070 2.50008 30,275 250 434 -2048
2017-02-07 14:18:15 GMT 51.77248 2.50778 30,350 250 436 -1856
2017-02-07 14:18:13 GMT 51.77363 2.51259 30,400 250 436 -1792
2017-02-07 14:18:11 GMT 51.77573 2.52166 30,500 250 437 -1728
2017-02-07 14:18:08 GMT 51.77768 2.52998 30,575 250 440 -1856
2017-02-07 14:18:06 GMT 51.77838 2.53294 30,600 250 441 -1984
2017-02-07 14:18:04 GMT 51.78017 2.54051 30,675 250 441 -2176
2017-02-07 14:18:02 GMT 51.78192 2.54799 30,775 250 442 -2496
2017-02-07 14:17:59 GMT 51.78397 2.55699 30,875 250 441 -3008
2017-02-07 14:17:56 GMT 51.78625 2.56676 31,050 250 441 -3328
2017-02-07 14:17:54 GMT 51.78731 2.57147 31,125 250 439 -3648
2017-02-07 14:17:52 GMT 51.78873 2.57748 31,250 250 440 -3840
2017-02-07 14:17:50 GMT 51.78973 2.58186 31,350 250 439 -3840
2017-02-07 14:17:48 GMT 51.79183 2.59087 31,525 250 439 -3648
2017-02-07 14:17:46 GMT 51.79365 2.59888 31,700 250 438 -3392
2017-02-07 14:17:44 GMT 51.79445 2.60220 31,775 250 437 -3328
2017-02-07 14:17:44 GMT 51.79445 2.60220 31,775 250 438 -3328
2017-02-07 14:17:42 GMT 51.79541 2.60651 31,850 250 437 -3328
2017-02-07 14:17:40 GMT 51.79715 2.61393 32,000 250 437 -3328
2017-02-07 14:17:38 GMT 51.79914 2.62253 32,150 250 437 -2944
2017-02-07 14:17:36 GMT 51.80090 2.63011 32,275 250 437 -2816
2017-02-07 14:17:34 GMT 51.80241 2.63642 32,400 250 438 -2688
2017-02-07 14:17:32 GMT 51.80374 2.64229 32,475 250 438 -2816
2017-02-07 14:17:29 GMT 51.80491 2.64717 32,550 250 438 -2624
2017-02-07 14:17:27 GMT 51.80640 2.65358 32,650 250 438 -2752
2017-02-07 14:17:24 GMT 51.80910 2.66495 32,825 250 438 -2880
2017-02-07 14:17:22 GMT 51.81102 2.67317 32,950 250 438 -2880
2017-02-07 14:17:22 GMT 51.80983 2.66805 32,875 250 438 -2880
2017-02-07 14:17:20 GMT 51.81139 2.67473 32,975 250 437 -2880
2017-02-07 14:17:17 GMT 51.81422 2.68697 33,175 250 437 -3008
2017-02-07 14:17:15 GMT 51.81506 2.69035 33,250 250 437 -3008
2017-02-07 14:17:13 GMT 51.81739 2.70050 33,425 250 437 -2944
2017-02-07 14:17:11 GMT 51.81802 2.70316 33,450 250 437 -2944
2017-02-07 14:17:09 GMT 51.81944 2.70920 33,550 250 437 -2816
2017-02-07 14:17:07 GMT 51.82091 2.71563 33,675 250 437 -2624
2017-02-07 14:17:05 GMT 51.82260 2.72283 33,775 250 438 -2368
2017-02-07 14:17:05 GMT 51.82292 2.72424 33,800 250 438 -2368
2017-02-07 14:17:03 GMT 51.82375 2.72773 33,850 250 438 -2368
2017-02-07 14:17:03 GMT 51.82375 2.72773 33,850 250 438 -2368
2017-02-07 14:17:01 GMT 51.82581 2.73671 33,975 250 438 -2304
2017-02-07 14:16:58 GMT 51.82690 2.74146 34,025 250 438 -2368
2017-02-07 14:16:54 GMT 51.83000 2.75528 34,200 250 439 -2752
2017-02-07 14:16:54 GMT 51.83000 2.75528 34,200 250 439 -2752
2017-02-07 14:16:52 GMT 51.83221 2.76455 34,350 250 438 -3392
2017-02-07 14:16:50 GMT 51.83331 2.76939 34,450 250 437 -3584
2017-02-07 14:16:50 GMT 51.83331 2.76939 34,450 250 438 -3264
2017-02-07 14:16:47 GMT 51.83466 2.77535 34,550 250 437 -3584
2017-02-07 14:16:44 GMT 51.83741 2.78748 34,800 251 436 -3840
2017-02-07 14:16:41 GMT 51.83949 2.79661 34,975 251 434 -3776
2017-02-07 14:16:41 GMT 51.83977 2.79788 35,000 251 434 -3712
2017-02-07 14:16:39 GMT 51.84110 2.80389 35,150 251 434 -3584
2017-02-07 14:16:39 GMT 51.84110 2.80389 35,150 251 434 -3520
2017-02-07 14:16:37 GMT 51.84150 2.80563 35,175 251 434 -3520
2017-02-07 14:16:34 GMT 51.84471 2.81985 35,450 251 433 -3008
2017-02-07 14:16:32 GMT 51.84609 2.82594 35,525 251 433 -2560
2017-02-07 14:16:30 GMT 51.84700 2.82997 35,600 251 433 -2560
2017-02-07 14:16:28 GMT 51.84911 2.83937 35,725 250 433 -2048
2017-02-07 14:16:27 GMT 51.84878 2.83789 35,700 250 433 -2176
2017-02-07 14:16:26 GMT 51.84911 2.83937 35,725 250 438 -1408
2017-02-07 14:16:24 GMT 51.85091 2.84729 35,825 250 434 -1728
2017-02-07 14:16:22 GMT 51.85235 2.85362 35,875 250 434 -1664
2017-02-07 14:16:19 GMT 51.85478 2.86446 35,975 250 436 -1408
2017-02-07 14:16:16 GMT 51.85583 2.86899 36,000 250 437 -1280
2017-02-07 14:16:15 GMT 51.85677 2.87315 36,025 250 437 -1280
2017-02-07 14:16:13 GMT 51.85844 2.88050 36,075 250 440 -1536
2017-02-07 14:16:10 GMT 51.86096 2.89146 36,175 250 441 -2368
2017-02-07 14:16:10 GMT 51.86068 2.89017 36,150 250 441 -2496
2017-02-07 14:16:08 GMT 51.86245 2.89803 36,225 250 441 -2304
2017-02-07 14:16:05 GMT 51.86426 2.90588 36,325 250 441 -2496
2017-02-07 14:16:03 GMT 51.86595 2.91338 36,450 250 441 -2688
2017-02-07 14:16:03 GMT 51.86595 2.91338 36,450 250 441 -2624
2017-02-07 14:16:01 GMT 51.86673 2.91687 36,500 250 435 -3072
2017-02-07 14:15:59 GMT 51.86827 2.92351 36,575 250 441 -3008
2017-02-07 14:15:57 GMT 51.86967 2.92969 36,700 250 439 -3456
2017-02-07 14:15:55 GMT 51.87167 2.93847 36,825 250 439 -3456
2017-02-07 14:15:52 GMT 51.87309 2.94456 36,950 250 439 -3456
2017-02-07 14:15:50 GMT 51.87447 2.95057 37,050 250 438 -3456
2017-02-07 14:15:50 GMT 51.87447 2.95057 37,050 250 438 -3456
2017-02-07 14:15:48 GMT 51.87670 2.96036 37,250 250 436 -3264
2017-02-07 14:15:47 GMT 51.87670 2.96036 37,250 250 436 -3328
2017-02-07 14:15:45 GMT 51.87845 2.96809 37,375 250 435 -3200
2017-02-07 14:15:45 GMT 51.87877 2.96950 37,400 250 435 -3008
2017-02-07 14:15:43 GMT 51.88075 2.97821 37,550 250 435 -3008
2017-02-07 14:15:41 GMT 51.88075 2.97821 37,550 250 435 -2880
2017-02-07 14:15:39 GMT 51.88243 2.98554 37,675 250 435 -2816
2017-02-07 14:15:36 GMT 51.88431 2.99392 37,800 251 434 -2560
2017-02-07 14:15:34 GMT 51.88601 3.00140 37,925 251 434 -2688
2017-02-07 14:15:32 GMT 51.88701 3.00587 37,975 251 434 -2752
2017-02-07 14:15:30 GMT 51.88861 3.01308 38,075 251 434 -2240
2017-02-07 14:15:27 GMT 51.89020 3.02010 38,175 251 434 -2240
2017-02-07 14:15:27 GMT 51.89090 3.02332 38,225 251 435 -1728
2017-02-07 14:15:25 GMT 51.89236 3.02970 38,275 251 435 -1728
2017-02-07 14:15:25 GMT 51.89200 3.02800 38,275 251 434 -1856
2017-02-07 14:15:23 GMT 51.89304 3.03276 38,325 251 434 -1792
2017-02-07 14:15:20 GMT 51.89550 3.04376 38,425 251 435 -1728
2017-02-07 14:15:18 GMT 51.89658 3.04848 38,475 251 435 -1728
2017-02-07 14:15:18 GMT 51.89658 3.04848 38,475 251 435 -1728
2017-02-07 14:15:16 GMT 51.89795 3.05466 38,525 251 436 -1728
2017-02-07 14:15:16 GMT 51.89758 3.05313 38,525 251 436 -1728
2017-02-07 14:15:14 GMT 51.89941 3.06129 38,600 251 436 -1664
2017-02-07 14:15:12 GMT 51.90157 3.07091 38,675 251 437 -1664
2017-02-07 14:15:09 GMT 51.90289 3.07709 38,725 250 438 -1728
2017-02-07 14:15:07 GMT 51.90514 3.08700 38,825 250 439 -1728
2017-02-07 14:15:05 GMT 51.90591 3.09044 38,850 250 439 -1728
2017-02-07 14:15:05 GMT 51.90591 3.09044 38,850 250 439 -1728
2017-02-07 14:15:03 GMT 51.90775 3.09838 38,925 249 440 -1664
2017-02-07 14:15:00 GMT 51.90961 3.10607 39,000 248 442 -1600
2017-02-07 14:14:58 GMT 51.91105 3.11196 39,050 248 441 -1664
2017-02-07 14:14:56 GMT 51.91214 3.11638 39,075 248 441 -1600
2017-02-07 14:14:54 GMT 51.91417 3.12436 39,150 248 442 -1600
2017-02-07 14:14:54 GMT 51.91417 3.12436 39,150 248 442 -1600
2017-02-07 14:14:52 GMT 51.91571 3.13016 39,200 247 443 -1600
2017-02-07 14:14:52 GMT 51.91571 3.13016 39,200 247 443 -1600
2017-02-07 14:14:50 GMT 51.91658 3.13362 39,225 247 443 -1664
2017-02-07 14:14:48 GMT 51.91897 3.14248 39,275 246 443 -1920
2017-02-07 14:14:46 GMT 51.92024 3.14712 39,325 245 444 -2112
2017-02-07 14:14:44 GMT 51.92190 3.15323 39,375 245 444 -2368
2017-02-07 14:14:42 GMT 51.92317 3.15773 39,425 245 444 -2368
2017-02-07 14:14:40 GMT 51.92532 3.16513 39,525 244 444 -2432
2017-02-07 14:14:38 GMT 51.92762 3.17285 39,625 244 443 -2432
2017-02-07 14:14:36 GMT 51.92939 3.17858 39,700 239 445 0
2017-02-07 14:14:36 GMT 51.92939 3.17858 39,700 244 443 -2304
2017-02-07 14:14:33 GMT 51.93205 3.18710 39,800 243 442 -1792
2017-02-07 14:14:30 GMT 51.93484 3.19584 39,900 242 442 -960
2017-02-07 14:14:27 GMT 51.93741 3.20358 39,950 242 442 -448
2017-02-07 14:14:25 GMT 51.93993 3.21106 39,975 241 442 -128
2017-02-07 14:14:25 GMT 51.93933 3.20938 39,975 241 442 -320
2017-02-07 14:14:23 GMT 51.94190 3.21686 40,000 240 442 -128
2017-02-07 14:14:21 GMT 51.94275 3.21939 40,000 241 442 -128
2017-02-07 14:14:19 GMT 51.94537 3.22685 40,000 239 442 -64
2017-02-07 14:14:19 GMT 51.94537 3.22685 40,000 240 442 -128
2017-02-07 14:14:17 GMT 51.94699 3.23124 40,000 240 442 -128
2017-02-07 14:14:15 GMT 51.94963 3.23853 40,000 239 442 -64
2017-02-07 14:14:13 GMT 51.95281 3.24693 40,000 239 443 -64
2017-02-07 14:14:11 GMT 51.95393 3.24997 40,000 239 443 -64
2017-02-07 14:14:08 GMT 51.95770 3.25980 40,000 239 443 -64
2017-02-07 14:14:06 GMT 51.95933 3.26396 40,000 239 443 -64
2017-02-07 14:14:04 GMT 51.96175 3.27032 40,000 239 443 -64
2017-02-07 14:14:01 GMT 51.96575 3.28083 40,000 239 444 0
2017-02-07 14:13:59 GMT 51.96684 3.28369 40,000 239 444 64
2017-02-07 14:13:57 GMT 51.96895 3.28926 40,000 239 444 64
2017-02-07 14:13:56 GMT 51.97119 3.29514 40,000 239 444 64
2017-02-07 14:13:55 GMT 51.97119 3.29514 40,000 239 444 64
2017-02-07 14:13:53 GMT 51.97278 3.29935 40,000 239 444 0
2017-02-07 14:13:51 GMT 51.97572 3.30704 40,000 239 444 0
2017-02-07 14:13:50 GMT 51.97674 3.30979 40,000 239 444 64
2017-02-07 14:13:48 GMT 51.97842 3.31421 40,000 239 446 0
2017-02-07 14:13:46 GMT 51.98093 3.32085 40,000 239 445 0
2017-02-07 14:13:44 GMT 51.98410 3.32916 40,000 239 445 0
2017-02-07 14:13:42 GMT 51.98630 3.33496 40,000 239 446 0
2017-02-07 14:13:40 GMT 51.98754 3.33827 40,000 239 447 0
2017-02-07 14:13:37 GMT 51.98977 3.34416 40,000 239 448 0
2017-02-07 14:13:35 GMT 51.99330 3.35342 40,000 239 447 64
2017-02-07 14:13:33 GMT 51.99490 3.35770 40,000 239 447 0
2017-02-07 14:13:31 GMT 51.99751 3.36456 40,000 239 447 0
2017-02-07 14:13:28 GMT 51.99985 3.37074 40,000 239 447 0
2017-02-07 14:13:26 GMT 52.00205 3.37654 40,000 239 447 -64
2017-02-07 14:13:24 GMT 52.00471 3.38355 40,000 239 447 -64
2017-02-07 14:13:22 GMT 52.00621 3.38745 40,000 239 447 0
2017-02-07 14:13:20 GMT 52.00868 3.39401 40,000 239 447 0
2017-02-07 14:13:18 GMT 52.01091 3.39988 40,000 239 447 0
2017-02-07 14:13:18 GMT 52.01091 3.39988 40,000 239 447 0
2017-02-07 14:13:16 GMT 52.01427 3.40874 40,000 239 447 0
2017-02-07 14:13:14 GMT 52.01523 3.41126 40,000 239 447 0
2017-02-07 14:13:12 GMT 52.01756 3.41745 40,000 239 447 0
2017-02-07 14:13:10 GMT 52.02090 3.42628 40,000 239 448 0
2017-02-07 14:13:08 GMT 52.02203 3.42923 40,000 239 448 0
2017-02-07 14:13:05 GMT 52.02498 3.43712 40,000 239 448 0
2017-02-07 14:13:03 GMT 52.02772 3.44444 40,000 239 448 0
2017-02-07 14:13:00 GMT 52.03166 3.45482 40,000 239 448 0
2017-02-07 14:12:57 GMT 52.03455 3.46252 40,000 239 448 0
2017-02-07 14:12:55 GMT 52.03679 3.46840 40,000 239 448 0
2017-02-07 14:12:53 GMT 52.03848 3.47282 40,000 239 448 -64
2017-02-07 14:12:51 GMT 52.04010 3.47709 40,000 239 448 -64
2017-02-07 14:12:49 GMT 52.04320 3.48534 40,000 239 448 0
2017-02-07 14:12:46 GMT 52.04549 3.49136 40,000 239 448 0
2017-02-07 14:12:44 GMT 52.04718 3.49586 40,000 239 448 0
2017-02-07 14:12:42 GMT 52.05080 3.50542 40,000 239 448 0
2017-02-07 14:12:40 GMT 52.05243 3.50974 40,000 239 447 0
2017-02-07 14:12:38 GMT 52.05405 3.51402 40,000 239 448 0
2017-02-07 14:12:36 GMT 52.05741 3.52292 40,000 239 448 0
2017-02-07 14:12:34 GMT 52.05955 3.52865 40,000 239 448 -64
2017-02-07 14:12:32 GMT 52.06059 3.53149 40,000 239 448 -64
2017-02-07 14:12:30 GMT 52.06224 3.53577 40,000 239 448 0
2017-02-07 14:12:28 GMT 52.06598 3.54576 40,000 239 448 0
2017-02-07 14:12:25 GMT 52.06906 3.55408 40,000 239 448 0
2017-02-07 14:12:23 GMT 52.06970 3.55572 40,000 239 448 0
2017-02-07 14:12:21 GMT 52.07346 3.56567 40,000 239 447 0
2017-02-07 14:12:19 GMT 52.07454 3.56867 40,000 239 447 0
2017-02-07 14:12:17 GMT 52.07682 3.57464 40,000 239 447 0
2017-02-07 14:12:16 GMT 52.07789 3.57754 40,000 239 447 0
2017-02-07 14:12:15 GMT 52.07918 3.58093 40,000 239 447 0
2017-02-07 14:12:13 GMT 52.08151 3.58711 40,000 239 447 0
2017-02-07 14:12:11 GMT 52.08380 3.59322 40,000 239 448 0
2017-02-07 14:12:08 GMT 52.08660 3.60069 40,000 239 447 0
2017-02-07 14:12:06 GMT 52.08935 3.60791 40,000 239 447 0
2017-02-07 14:12:04 GMT 52.09093 3.61223 40,000 239 447 0
2017-02-07 14:12:02 GMT 52.09428 3.62122 40,000 239 447 0
2017-02-07 14:12:00 GMT 52.09531 3.62392 40,000 239 447 64
2017-02-07 14:11:58 GMT 52.09735 3.62933 40,000 239 447 0
2017-02-07 14:11:56 GMT 52.09987 3.63600 40,000 239 447 0
2017-02-07 14:11:54 GMT 52.10220 3.64220 40,000 239 446 -64
2017-02-07 14:11:52 GMT 52.10376 3.64639 40,000 239 446 -64
2017-02-07 14:11:50 GMT 52.10648 3.65374 40,000 239 446 0
2017-02-07 14:11:50 GMT 52.10601 3.65248 40,000 239 446 0
2017-02-07 14:11:48 GMT 52.10885 3.66002 40,000 239 446 0
2017-02-07 14:11:48 GMT 52.10885 3.66002 40,000 239 446 0
2017-02-07 14:11:45 GMT 52.11140 3.66684 40,000 239 446 0
2017-02-07 14:11:43 GMT 52.11262 3.67006 40,000 239 446 0
2017-02-07 14:11:41 GMT 52.11649 3.68042 40,000 239 446 0
2017-02-07 14:11:39 GMT 52.11800 3.68446 40,000 239 446 0
2017-02-07 14:11:37 GMT 52.12006 3.68996 40,000 239 446 -64
2017-02-07 14:11:35 GMT 52.12207 3.69537 40,000 239 446 0
2017-02-07 14:11:31 GMT 52.12715 3.70888 40,000 239 446 64
2017-02-07 14:11:29 GMT 52.12880 3.71323 40,000 239 446 64
2017-02-07 14:11:26 GMT 52.13241 3.72295 40,000 239 446 0
2017-02-07 14:11:24 GMT 52.13446 3.72837 40,000 239 446 0
2017-02-07 14:11:22 GMT 52.13655 3.73402 40,000 239 446 0
2017-02-07 14:11:20 GMT 52.13773 3.73718 40,000 239 446 0
2017-02-07 14:11:18 GMT 52.14097 3.74587 40,000 239 446 0
2017-02-07 14:11:16 GMT 52.14316 3.75160 40,000 239 446 0
2017-02-07 14:11:14 GMT 52.14507 3.75685 40,000 239 446 0
2017-02-07 14:11:12 GMT 52.14619 3.75977 40,000 239 445 0
2017-02-07 14:11:10 GMT 52.14982 3.76949 40,000 239 445 0
2017-02-07 14:11:08 GMT 52.15196 3.77529 40,000 239 445 0
2017-02-07 14:11:06 GMT 52.15260 3.77693 40,000 239 445 0
2017-02-07 14:11:04 GMT 52.15526 3.78408 40,000 239 445 0
2017-02-07 14:11:04 GMT 52.15526 3.78408 40,000 239 445 0
2017-02-07 14:11:02 GMT 52.15691 3.78853 40,000 239 445 0
2017-02-07 14:11:00 GMT 52.16020 3.79742 40,000 239 445 0
2017-02-07 14:10:58 GMT 52.16206 3.80237 40,000 239 445 0
2017-02-07 14:10:56 GMT 52.16487 3.80989 40,000 239 445 0
2017-02-07 14:10:54 GMT 52.16588 3.81264 40,000 239 445 0
2017-02-07 14:10:52 GMT 52.16913 3.82133 40,000 239 444 0
2017-02-07 14:10:50 GMT 52.17142 3.82752 40,000 239 444 0
2017-02-07 14:10:47 GMT 52.17384 3.83400 40,000 239 444 0
2017-02-07 14:10:45 GMT 52.17477 3.83650 40,000 239 444 0
2017-02-07 14:10:44 GMT 52.17752 3.84380 40,000 239 444 -64
2017-02-07 14:10:43 GMT 52.17691 3.84215 40,000 239 444 -64
2017-02-07 14:10:40 GMT 52.18161 3.85479 40,000 239 443 0
2017-02-07 14:10:40 GMT 52.18208 3.85612 40,000 239 443 0
2017-02-07 14:10:38 GMT 52.18380 3.86067 40,000 239 442 0
2017-02-07 14:10:35 GMT 52.18639 3.86772 40,000 239 442 0
2017-02-07 14:10:32 GMT 52.19013 3.87763 40,000 239 442 0
2017-02-07 14:10:30 GMT 52.19115 3.88054 40,000 239 442 0
2017-02-07 14:10:30 GMT 52.19115 3.88054 40,000 239 442 0
2017-02-07 14:10:28 GMT 52.19339 3.88649 40,000 239 442 0
2017-02-07 14:10:26 GMT 52.19604 3.89356 40,000 239 442 0
2017-02-07 14:10:24 GMT 52.19814 3.89928 40,000 239 442 0
2017-02-07 14:10:22 GMT 52.19971 3.90358 40,000 239 442 0
2017-02-07 14:10:20 GMT 52.20280 3.91184 40,000 239 442 0
2017-02-07 14:10:18 GMT 52.20494 3.91765 40,000 239 442 0
2017-02-07 14:10:15 GMT 52.20703 3.92330 40,000 239 442 0
2017-02-07 14:10:13 GMT 52.20960 3.93013 40,000 239 442 0
2017-02-07 14:10:11 GMT 52.21184 3.93623 40,000 239 442 0
2017-02-07 14:10:09 GMT 52.21350 3.94072 40,000 239 442 0
2017-02-07 14:10:07 GMT 52.21513 3.94801 40,000 239 442 0
2017-02-07 14:10:05 GMT 52.21816 3.95325 40,000 239 442 0
2017-02-07 14:10:03 GMT 52.22003 3.95828 40,000 239 442 0
2017-02-07 14:10:00 GMT 52.22314 3.96669 40,000 239 442 -64
2017-02-07 14:10:00 GMT 52.22314 3.96669 40,000 239 442 0
2017-02-07 14:09:58 GMT 52.22630 3.97530 40,000 239 442 0
2017-02-07 14:09:58 GMT 52.22575 3.97368 40,000 239 442 0
2017-02-07 14:09:58 GMT 52.22630 3.97530 40,000 239 442 -64
2017-02-07 14:09:56 GMT 52.22747 3.97838 40,000 239 442 -64
2017-02-07 14:09:54 GMT 52.23061 3.98689 40,000 239 442 -64
2017-02-07 14:09:52 GMT 52.23267 3.99254 40,000 239 442 0
2017-02-07 14:09:49 GMT 52.23477 3.99811 40,000 239 442 0
2017-02-07 14:09:47 GMT 52.23664 4.00318 40,000 239 442 64
2017-02-07 14:09:45 GMT 52.23949 4.01085 40,000 239 442 0
2017-02-07 14:09:43 GMT 52.24104 4.01512 40,000 239 442 0
2017-02-07 14:09:41 GMT 52.24423 4.02366 40,000 239 442 -64
2017-02-07 14:09:38 GMT 52.24641 4.02963 40,000 239 442 -64
2017-02-07 14:09:36 GMT 52.24856 4.03543 40,000 239 442 0
2017-02-07 14:09:36 GMT 52.24856 4.03543 40,000 239 442 64
2017-02-07 14:09:34 GMT 52.25084 4.04156 40,000 239 442 64
2017-02-07 14:09:32 GMT 52.25240 4.04579 40,000 239 442 64
2017-02-07 14:09:30 GMT 52.25597 4.05541 40,000 239 442 0
2017-02-07 14:09:30 GMT 52.25597 4.05541 40,000 239 442 0
2017-02-07 14:09:28 GMT 52.25803 4.06105 40,000 239 442 0
2017-02-07 14:09:26 GMT 52.25908 4.06376 40,000 239 442 0
2017-02-07 14:09:24 GMT 52.26182 4.07122 40,000 240 443 -64
2017-02-07 14:09:22 GMT 52.26302 4.07448 40,000 240 443 -64
2017-02-07 14:09:19 GMT 52.26760 4.08691 40,000 240 443 0
2017-02-07 14:09:17 GMT 52.26865 4.08974 40,000 240 443 0
2017-02-07 14:09:15 GMT 52.27066 4.09515 40,000 240 443 0
2017-02-07 14:09:15 GMT 52.27066 4.09515 40,000 240 443 0
2017-02-07 14:09:12 GMT 52.27388 4.10386 40,000 240 443 64
2017-02-07 14:09:10 GMT 52.27707 4.11263 40,000 240 443 64
2017-02-07 14:09:08 GMT 52.27821 4.11564 40,000 240 444 -64
2017-02-07 14:09:08 GMT 52.27918 4.11835 40,000 239 443 -64
2017-02-07 14:09:08 GMT 52.27821 4.11564 40,000 239 443 0
2017-02-07 14:09:06 GMT 52.28063 4.12231 40,000 239 443 -64
2017-02-07 14:09:04 GMT 52.28310 4.12890 40,000 240 444 -64
2017-02-07 14:09:04 GMT 52.28263 4.12772 40,000 239 444 -64
2017-02-07 14:09:04 GMT 52.28221 4.12654 40,000 240 444 -64
2017-02-07 14:09:01 GMT 52.28524 4.13478 40,000 240 444 -64
2017-02-07 14:08:59 GMT 52.28851 4.14368 40,000 240 444 0
2017-02-07 14:08:57 GMT 52.28948 4.14624 40,000 240 444 0
2017-02-07 14:08:55 GMT 52.29115 4.15087 40,000 240 444 0
2017-02-07 14:08:53 GMT 52.29451 4.15993 40,000 240 444 0
2017-02-07 14:08:51 GMT 52.29557 4.16288 40,000 240 444 0
2017-02-07 14:08:49 GMT 52.29790 4.16923 40,000 240 445 0
2017-02-07 14:08:47 GMT 52.30019 4.17542 40,000 240 446 -64
2017-02-07 14:08:45 GMT 52.30339 4.18414 40,000 240 446 -64
2017-02-07 14:08:43 GMT 52.30437 4.18681 40,000 240 446 -64
2017-02-07 14:08:42 GMT 52.30609 4.19160 40,000 240 448 -64
2017-02-07 14:08:42 GMT 52.30495 4.18839 40,000 240 446 -64
2017-02-07 14:08:40 GMT 52.30782 4.19623 40,000 240 446 -64
2017-02-07 14:08:38 GMT 52.31010 4.20243 40,000 240 447 0
2017-02-07 14:08:35 GMT 52.31266 4.20941 40,000 240 447 0
2017-02-07 14:08:32 GMT 52.31584 4.21814 40,000 239 448 0
2017-02-07 14:08:30 GMT 52.31786 4.22356 40,000 240 449 0
2017-02-07 14:08:30 GMT 52.31786 4.22356 40,000 239 448 0
2017-02-07 14:08:28 GMT 52.32019 4.22989 40,000 239 448 0
2017-02-07 14:08:28 GMT 52.32019 4.22989 40,000 239 448 0
2017-02-07 14:08:26 GMT 52.32341 4.23868 40,000 240 448 -64
2017-02-07 14:08:24 GMT 52.32431 4.24110 40,000 240 448 -64
2017-02-07 14:08:22 GMT 52.32751 4.24983 40,000 240 448 -64
2017-02-07 14:08:20 GMT 52.32866 4.25293 40,000 240 449 0
2017-02-07 14:08:18 GMT 52.33142 4.26042 40,000 240 449 64
2017-02-07 14:08:18 GMT 52.33026 4.25735 40,000 240 449 0
2017-02-07 14:08:16 GMT 52.33296 4.26468 40,000 240 449 64
2017-02-07 14:08:14 GMT 52.33502 4.27025 40,000 240 449 64
2017-02-07 14:08:12 GMT 52.33821 4.27902 40,000 240 450 -64
2017-02-07 14:08:09 GMT 52.34088 4.28635 40,000 240 450 -64
2017-02-07 14:08:06 GMT 52.34299 4.29207 40,000 240 450 -64
2017-02-07 14:08:04 GMT 52.34551 4.29901 40,000 240 450 -64
2017-02-07 14:08:02 GMT 52.34779 4.30527 40,000 240 450 128
2017-02-07 14:07:59 GMT 52.35173 4.31610 40,000 240 450 128
2017-02-07 14:07:57 GMT 52.35325 4.32022 40,000 240 450 64
2017-02-07 14:07:54 GMT 52.35693 4.33034 40,000 240 451 0
2017-02-07 14:07:52 GMT 52.35860 4.33479 40,000 240 451 0
2017-02-07 14:07:49 GMT 52.36182 4.34368 40,000 240 451 0
2017-02-07 14:07:47 GMT 52.36404 4.34975 40,000 240 451 64
2017-02-07 14:07:45 GMT 52.36679 4.35730 40,000 240 451 64
2017-02-07 14:07:43 GMT 52.36885 4.36302 40,000 240 451 64
2017-02-07 14:07:40 GMT 52.37239 4.37264 40,000 240 452 64
2017-02-07 14:07:37 GMT 52.37517 4.38042 40,000 240 451 0
2017-02-07 14:07:35 GMT 52.37620 4.38315 40,000 240 452 0
2017-02-07 14:07:33 GMT 52.37844 4.38935 40,000 240 452 0
2017-02-07 14:07:31 GMT 52.38117 4.39682 40,000 240 452 0
2017-02-07 14:07:29 GMT 52.38435 4.40560 40,000 240 451 0
2017-02-07 14:07:27 GMT 52.38611 4.41040 40,000 240 451 0
2017-02-07 14:07:25 GMT 52.38831 4.41643 40,000 240 451 0
2017-02-07 14:07:25 GMT 52.38776 4.41498 40,000 240 451 0
2017-02-07 14:07:22 GMT 52.39138 4.42498 40,000 240 451 0
2017-02-07 14:07:21 GMT 52.39138 4.42498 40,000 240 451 0
2017-02-07 14:07:21 GMT 52.39138 4.42498 40,000 240 451 0
2017-02-07 14:07:20 GMT 52.39243 4.42787 40,000 240 451 0
2017-02-07 14:07:18 GMT 52.39453 4.43367 40,000 240 451 0
2017-02-07 14:07:16 GMT 52.39720 4.44107 40,000 240 451 0
2017-02-07 14:07:16 GMT 52.39720 4.44107 40,000 240 451 0
2017-02-07 14:07:14 GMT 52.39893 4.44580 40,000 240 451 0
2017-02-07 14:07:12 GMT 52.40112 4.45198 40,000 240 451 0
2017-02-07 14:07:10 GMT 52.40318 4.45755 40,000 240 451 0
2017-02-07 14:07:08 GMT 52.40618 4.46586 40,000 240 451 -64
2017-02-07 14:07:08 GMT 52.40618 4.46586 40,000 240 451 -64
2017-02-07 14:07:06 GMT 52.40828 4.47167 40,000 240 451 0
2017-02-07 14:07:04 GMT 52.41042 4.47764 40,000 240 451 0
2017-02-07 14:07:04 GMT 52.41042 4.47764 40,000 240 451 0
2017-02-07 14:07:02 GMT 52.41367 4.48662 40,000 240 450 64
2017-02-07 14:07:00 GMT 52.41479 4.48972 40,000 240 450 64
2017-02-07 14:06:58 GMT 52.41680 4.49529 40,000 240 450 64
2017-02-07 14:06:56 GMT 52.41828 4.49937 40,000 240 451 0
2017-02-07 14:06:54 GMT 52.42131 4.50769 40,000 240 451 0
2017-02-07 14:06:52 GMT 52.42241 4.51073 40,000 240 451 -64
2017-02-07 14:06:50 GMT 52.42559 4.51954 40,000 240 451 -64
2017-02-07 14:06:48 GMT 52.42612 4.52103 40,000 240 451 -64
2017-02-07 14:06:46 GMT 52.42899 4.52896 40,000 240 452 0
2017-02-07 14:06:46 GMT 52.42841 4.52728 40,000 240 451 64
2017-02-07 14:06:45 GMT 52.43060 4.53346 40,000 240 451 64
2017-02-07 14:06:44 GMT 52.43060 4.53346 40,000 240 451 64
2017-02-07 14:06:42 GMT 52.43337 4.54112 40,000 240 451 64
2017-02-07 14:06:39 GMT 52.43625 4.54897 40,000 240 451 0
2017-02-07 14:06:37 GMT 52.43956 4.55823 40,000 240 452 0
2017-02-07 14:06:35 GMT 52.44054 4.56090 40,000 240 452 -64
2017-02-07 14:06:33 GMT 52.44282 4.56718 40,000 240 452 0
2017-02-07 14:06:31 GMT 52.44575 4.57527 40,000 240 452 0
2017-02-07 14:06:29 GMT 52.44731 4.57954 40,000 240 452 0
2017-02-07 14:06:27 GMT 52.44942 4.58534 40,000 240 452 0
2017-02-07 14:06:26 GMT 52.44942 4.58534 40,000 240 452 0
2017-02-07 14:06:24 GMT 52.45212 4.59274 40,000 240 452 0
2017-02-07 14:06:22 GMT 52.45525 4.60147 40,000 240 452 0
2017-02-07 14:06:20 GMT 52.45757 4.60774 40,000 240 452 0
2017-02-07 14:06:19 GMT 52.45757 4.60774 40,000 240 452 0
2017-02-07 14:06:17 GMT 52.46022 4.61502 40,000 240 452 -64
2017-02-07 14:06:15 GMT 52.46274 4.62196 40,000 240 452 0
2017-02-07 14:06:13 GMT 52.46381 4.62501 40,000 240 452 64
2017-02-07 14:06:11 GMT 52.46654 4.63257 40,000 240 452 0
2017-02-07 14:06:09 GMT 52.46874 4.63852 40,000 240 452 0
2017-02-07 14:06:09 GMT 52.46874 4.63852 40,000 240 453 -64
2017-02-07 14:06:07 GMT 52.47084 4.64439 40,000 240 452 -64
2017-02-07 14:06:07 GMT 52.47084 4.64439 40,000 240 452 -64
2017-02-07 14:06:05 GMT 52.47182 4.64722 40,000 240 452 -64
2017-02-07 14:06:02 GMT 52.47551 4.65744 40,000 240 453 0
2017-02-07 14:06:02 GMT 52.47501 4.65607 40,000 240 453 -64
2017-02-07 14:06:00 GMT 52.47917 4.66766 40,000 240 453 0
2017-02-07 14:05:58 GMT 52.48123 4.67331 40,000 240 453 0
2017-02-07 14:05:58 GMT 52.48025 4.67060 40,000 240 453 0
2017-02-07 14:05:56 GMT 52.48234 4.67641 40,000 240 452 64
2017-02-07 14:05:56 GMT 52.48234 4.67641 40,000 240 453 64
2017-02-07 14:05:54 GMT 52.48462 4.68276 40,000 240 452 64
2017-02-07 14:05:52 GMT 52.48681 4.68889 40,000 240 452 64
2017-02-07 14:05:50 GMT 52.48918 4.69540 40,000 240 453 -64
2017-02-07 14:05:50 GMT 52.48960 4.69658 40,000 240 453 0
2017-02-07 14:05:47 GMT 52.49286 4.70560 40,000 240 453 -64
2017-02-07 14:05:47 GMT 52.49286 4.70560 40,000 240 453 -64
2017-02-07 14:05:45 GMT 52.49375 4.70811 40,000 240 453 -64
2017-02-07 14:05:42 GMT 52.49698 4.71718 40,000 240 453 -64
2017-02-07 14:05:40 GMT 52.49918 4.72328 40,000 240 453 0
2017-02-07 14:05:38 GMT 52.50238 4.73229 40,000 240 453 64
2017-02-07 14:05:38 GMT 52.50238 4.73229 40,000 240 453 64
2017-02-07 14:05:34 GMT 52.50655 4.74382 40,000 240 453 0
2017-02-07 14:05:31 GMT 52.50911 4.75090 40,000 240 454 0
2017-02-07 14:05:29 GMT 52.51126 4.75693 40,000 240 455 0
2017-02-07 14:05:27 GMT 52.51405 4.76479 40,000 240 454 0
2017-02-07 14:05:24 GMT 52.51620 4.77066 40,000 240 455 0
2017-02-07 14:05:22 GMT 52.51851 4.77709 40,000 240 455 0
2017-02-07 14:05:22 GMT 52.51851 4.77709 40,000 240 455 -64
2017-02-07 14:05:20 GMT 52.52046 4.78256 40,000 240 455 0
2017-02-07 14:05:20 GMT 52.52046 4.78256 40,000 240 455 0
2017-02-07 14:05:18 GMT 52.52280 4.78902 40,000 240 455 0
2017-02-07 14:05:16 GMT 52.52549 4.79663 40,000 240 455 0
2017-02-07 14:05:14 GMT 52.52717 4.80118 40,000 240 455 0
2017-02-07 14:05:12 GMT 52.53021 4.80972 40,000 240 455 0
2017-02-07 14:05:10 GMT 52.53169 4.81382 40,000 240 455 0
2017-02-07 14:05:07 GMT 52.53442 4.82147 40,000 240 455 0
2017-02-07 14:05:07 GMT 52.53442 4.82147 40,000 240 455 -64
2017-02-07 14:05:05 GMT 52.53625 4.82661 40,000 240 455 -64
2017-02-07 14:05:03 GMT 52.53891 4.83391 40,000 240 455 -64
2017-02-07 14:05:00 GMT 52.54193 4.84246 40,000 240 456 -64
2017-02-07 14:04:58 GMT 52.54398 4.84811 40,000 240 455 -64
2017-02-07 14:04:58 GMT 52.54398 4.84811 40,000 240 455 -64
2017-02-07 14:04:56 GMT 52.54724 4.85718 40,000 240 456 -64
2017-02-07 14:04:54 GMT 52.54900 4.86216 40,000 240 456 0
2017-02-07 14:04:52 GMT 52.54999 4.86496 40,000 240 456 0
2017-02-07 14:04:50 GMT 52.55305 4.87361 40,000 240 456 64
2017-02-07 14:04:48 GMT 52.55456 4.87770 40,000 240 456 64
2017-02-07 14:04:46 GMT 52.55649 4.88319 40,000 240 456 0
2017-02-07 14:04:44 GMT 52.55980 4.89253 40,000 240 456 -64
2017-02-07 14:04:44 GMT 52.55980 4.89253 40,000 240 456 -64
2017-02-07 14:04:42 GMT 52.56093 4.89563 40,000 240 456 -64
2017-02-07 14:04:39 GMT 52.56464 4.90608 40,000 240 456 -64
2017-02-07 14:04:39 GMT 52.56464 4.90608 40,000 240 456 -64
2017-02-07 14:04:37 GMT 52.56748 4.91395 40,000 240 456 0
2017-02-07 14:04:35 GMT 52.56800 4.91552 40,000 240 456 0
2017-02-07 14:04:33 GMT 52.57146 4.92516 40,000 240 456 64
2017-02-07 14:04:31 GMT 52.57191 4.92643 40,000 240 456 64
2017-02-07 14:04:28 GMT 52.57590 4.93759 40,000 240 456 64
2017-02-07 14:04:26 GMT 52.57796 4.94339 40,000 240 456 0
2017-02-07 14:04:24 GMT 52.58029 4.94989 40,000 240 456 0
2017-02-07 14:04:22 GMT 52.58322 4.95821 40,000 240 456 0
2017-02-07 14:04:20 GMT 52.58418 4.96078 40,000 240 456 0
2017-02-07 14:04:17 GMT 52.58741 4.96990 40,000 240 456 0
2017-02-07 14:04:17 GMT 52.58741 4.96990 40,000 240 456 0
2017-02-07 14:04:15 GMT 52.58946 4.97571 40,000 240 457 0
2017-02-07 14:04:13 GMT 52.59206 4.98306 40,000 240 457 0
2017-02-07 14:04:11 GMT 52.59485 4.99077 40,000 240 456 0
2017-02-07 14:04:07 GMT 52.59846 5.00099 40,000 240 456 0
2017-02-07 14:04:05 GMT 52.60057 5.00694 40,000 240 456 0
2017-02-07 14:04:05 GMT 52.60012 5.00561 40,000 240 456 0
2017-02-07 14:04:03 GMT 52.60226 5.01173 40,000 240 457 0
2017-02-07 14:04:01 GMT 52.60547 5.02075 40,000 240 457 0
2017-02-07 14:04:00 GMT 52.60547 5.02075 40,000 240 457 0
2017-02-07 14:04:00 GMT 52.60547 5.02075 40,000 240 457 0
2017-02-07 14:03:58 GMT 52.60859 5.02954 40,000 240 457 0
2017-02-07 14:03:56 GMT 52.61082 5.03582 40,000 240 457 0
2017-02-07 14:03:54 GMT 52.61292 5.04453 40,000 240 457 0
2017-02-07 14:03:52 GMT 52.61446 5.04602 40,000 240 457 0
2017-02-07 14:03:50 GMT 52.61595 5.05028 40,000 240 457 0
2017-02-07 14:03:49 GMT 52.61801 5.05600 40,000 240 457 0
2017-02-07 14:03:47 GMT 52.61971 5.06081 40,000 240 457 0
2017-02-07 14:03:45 GMT 52.62245 5.06867 40,000 240 457 64
2017-02-07 14:03:43 GMT 52.62358 5.07176 40,000 240 457 64
2017-02-07 14:03:41 GMT 52.62593 5.07835 40,000 240 457 0
2017-02-07 14:03:39 GMT 52.62768 5.08345 40,000 240 457 0
2017-02-07 14:03:37 GMT 52.63046 5.09125 40,000 240 457 -64
2017-02-07 14:03:36 GMT 52.63210 5.09585 40,000 240 457 -64
2017-02-07 14:03:35 GMT 52.63271 5.09766 40,000 240 457 0
2017-02-07 14:03:33 GMT 52.63481 5.10353 40,000 240 457 0
2017-02-07 14:03:31 GMT 52.63648 5.10825 40,000 240 457 0
2017-02-07 14:03:29 GMT 52.63862 5.11429 40,000 240 457 0
2017-02-07 14:03:27 GMT 52.64085 5.12054 40,000 240 457 0
2017-02-07 14:03:25 GMT 52.64328 5.12749 40,000 240 457 0
2017-02-07 14:03:25 GMT 52.64328 5.12749 40,000 240 457 0
2017-02-07 14:03:25 GMT 52.64328 5.12749 40,000 240 457 0
2017-02-07 14:03:23 GMT 52.64490 5.13203 40,000 240 457 0
2017-02-07 14:03:21 GMT 52.64800 5.14076 40,000 240 457 0
2017-02-07 14:03:19 GMT 52.64960 5.14534 40,000 240 457 0
2017-02-07 14:03:17 GMT 52.65184 5.15167 40,000 240 457 0
2017-02-07 14:03:15 GMT 52.65454 5.15942 40,000 240 457 0
2017-02-07 14:03:13 GMT 52.65561 5.16240 40,000 240 457 0
2017-02-07 14:03:11 GMT 52.65770 5.16836 40,000 240 456 0
2017-02-07 14:03:09 GMT 52.65999 5.17471 40,000 240 456 64
2017-02-07 14:03:06 GMT 52.66376 5.18555 40,000 241 456 0
2017-02-07 14:03:04 GMT 52.66571 5.19104 40,000 240 456 0
2017-02-07 14:03:02 GMT 52.66734 5.19559 40,000 240 456 0
2017-02-07 14:03:00 GMT 52.66933 5.20134 40,000 241 456 0
2017-02-07 14:02:58 GMT 52.67097 5.20592 40,000 241 456 0
2017-02-07 14:02:56 GMT 52.67376 5.21403 40,000 240 456 0
2017-02-07 14:02:54 GMT 52.67642 5.22141 40,000 240 456 0
2017-02-07 14:02:52 GMT 52.67784 5.22545 40,000 240 456 0
2017-02-07 14:02:50 GMT 52.67995 5.23161 40,000 240 456 0
2017-02-07 14:02:48 GMT 52.68247 5.23867 40,000 240 455 0
2017-02-07 14:02:46 GMT 52.68539 5.24696 40,000 240 455 -64
2017-02-07 14:02:43 GMT 52.68796 5.25429 40,000 241 456 0
2017-02-07 14:02:43 GMT 52.68847 5.25570 40,000 241 456 0
2017-02-07 14:02:41 GMT 52.68945 5.25845 40,000 241 456 0
2017-02-07 14:02:38 GMT 52.69280 5.26810 40,000 241 456 0
2017-02-07 14:02:35 GMT 52.69555 5.27579 40,000 240 455 -64
2017-02-07 14:02:32 GMT 52.69979 5.28796 40,000 240 455 0
2017-02-07 14:02:30 GMT 52.70146 5.29274 40,000 240 455 0
2017-02-07 14:02:27 GMT 52.70370 5.29902 40,000 240 455 0
2017-02-07 14:02:25 GMT 52.70705 5.30853 40,000 240 455 0
2017-02-07 14:02:23 GMT 52.70929 5.31487 40,000 240 455 -64
2017-02-07 14:02:21 GMT 52.71094 5.31959 40,000 241 454 -64
2017-02-07 14:02:21 GMT 52.71144 5.32097 40,000 241 454 -64
2017-02-07 14:02:21 GMT 52.71094 5.31959 40,000 241 454 -64
2017-02-07 14:02:19 GMT 52.71259 5.32421 40,000 241 454 -64
2017-02-07 14:02:17 GMT 52.71464 5.33010 40,000 240 455 0
2017-02-07 14:02:15 GMT 52.71641 5.33512 40,000 241 454 0
2017-02-07 14:02:13 GMT 52.71869 5.34163 40,000 240 455 64
2017-02-07 14:02:11 GMT 52.72232 5.35199 40,000 240 455 64
2017-02-07 14:02:11 GMT 52.72183 5.35072 40,000 240 455 64
2017-02-07 14:02:11 GMT 52.72232 5.35199 40,000 240 455 64
2017-02-07 14:02:09 GMT 52.72343 5.35515 40,000 241 454 0
2017-02-07 14:02:07 GMT 52.72492 5.35944 40,000 241 454 0
2017-02-07 14:02:04 GMT 52.72865 5.37004 40,000 241 455 -64
2017-02-07 14:02:02 GMT 52.73074 5.37608 40,000 241 455 -64
2017-02-07 14:01:59 GMT 52.73433 5.38643 40,000 241 454 0
2017-02-07 14:01:57 GMT 52.73593 5.39093 40,000 241 454 0
2017-02-07 14:01:54 GMT 52.73912 5.40002 40,000 241 454 0
2017-02-07 14:01:52 GMT 52.74229 5.40916 40,000 241 454 0
2017-02-07 14:01:50 GMT 52.74383 5.41351 40,000 241 454 0
2017-02-07 14:01:48 GMT 52.74606 5.41979 40,000 241 454 0
2017-02-07 14:01:46 GMT 52.74750 5.42395 40,000 241 454 0
2017-02-07 14:01:46 GMT 52.74655 5.42122 40,000 241 454 -64
2017-02-07 14:01:44 GMT 52.74955 5.42976 40,000 241 454 0
2017-02-07 14:01:42 GMT 52.75113 5.43434 40,000 241 454 0
2017-02-07 14:01:40 GMT 52.75474 5.44456 40,000 241 454 0
2017-02-07 14:01:38 GMT 52.75534 5.44632 40,000 241 454 -64
2017-02-07 14:01:36 GMT 52.75807 5.45408 40,000 241 455 0
2017-02-07 14:01:33 GMT 52.76147 5.46387 40,000 241 455 0
2017-02-07 14:01:31 GMT 52.76321 5.46890 40,000 241 455 0
2017-02-07 14:01:28 GMT 52.76645 5.47818 40,000 241 454 0
2017-02-07 14:01:25 GMT 52.76967 5.48744 40,000 240 454 0
2017-02-07 14:01:21 GMT 52.77448 5.50125 40,000 241 454 0
2017-02-07 14:01:19 GMT 52.77502 5.50282 40,000 241 454 0
2017-02-07 14:01:17 GMT 52.77762 5.51035 40,000 241 454 0
2017-02-07 14:01:15 GMT 52.78066 5.51888 40,000 241 454 0
2017-02-07 14:01:14 GMT 52.78207 5.52299 40,000 241 454 0
2017-02-07 14:01:14 GMT 52.78066 5.51888 40,000 241 454 0
2017-02-07 14:01:12 GMT 52.78386 5.52808 40,000 241 454 64
2017-02-07 14:01:10 GMT 52.78441 5.52963 40,000 241 454 64
2017-02-07 14:01:08 GMT 52.78706 5.53719 40,000 241 454 0
2017-02-07 14:01:06 GMT 52.78912 5.54314 40,000 241 454 0
2017-02-07 14:01:04 GMT 52.79229 5.55218 40,000 241 454 -64
2017-02-07 14:01:02 GMT 52.79343 5.55557 40,000 241 453 64
2017-02-07 14:01:00 GMT 52.79568 5.56199 40,000 241 454 0
2017-02-07 14:00:57 GMT 52.79973 5.57368 40,000 241 453 64
2017-02-07 14:00:57 GMT 52.79883 5.57106 40,000 241 453 64
2017-02-07 14:00:57 GMT 52.79883 5.57106 40,000 241 453 64
2017-02-07 14:00:56 GMT 52.80076 5.57666 40,000 241 454 64
2017-02-07 14:00:55 GMT 52.80015 5.57493 40,000 241 454 64
2017-02-07 14:00:53 GMT 52.80382 5.58548 40,000 241 454 0
2017-02-07 14:00:50 GMT 52.80653 5.59322 40,000 241 454 -64
2017-02-07 14:00:50 GMT 52.80711 5.59502 40,000 241 453 -64
2017-02-07 14:00:48 GMT 52.80816 5.59793 40,000 241 453 0
2017-02-07 14:00:46 GMT 52.81025 5.60413 40,000 241 453 0
2017-02-07 14:00:44 GMT 52.81220 5.60966 40,000 241 453 0
2017-02-07 14:00:41 GMT 52.81482 5.61715 40,000 241 453 0
2017-02-07 14:00:39 GMT 52.81728 5.62429 40,000 241 453 0
2017-02-07 14:00:37 GMT 52.81961 5.63103 40,000 241 453 0
2017-02-07 14:00:35 GMT 52.82158 5.63675 40,000 241 453 0
2017-02-07 14:00:33 GMT 52.82368 5.64278 40,000 241 453 0
2017-02-07 14:00:31 GMT 52.82661 5.65132 40,000 241 453 0
2017-02-07 14:00:29 GMT 52.82854 5.65681 40,000 241 453 0
2017-02-07 14:00:27 GMT 52.82962 5.65992 40,000 241 453 0
2017-02-07 14:00:25 GMT 52.83225 5.66757 40,000 241 453 0
2017-02-07 14:00:23 GMT 52.83376 5.67193 40,000 241 453 0
2017-02-07 14:00:20 GMT 52.83819 5.68472 40,000 241 453 0
2017-02-07 14:00:20 GMT 52.83705 5.68146 40,000 241 452 64
2017-02-07 14:00:18 GMT 52.83977 5.68935 40,000 241 453 64
2017-02-07 14:00:15 GMT 52.84314 5.69900 40,000 241 453 0
2017-02-07 14:00:15 GMT 52.84255 5.69725 40,000 241 453 0
2017-02-07 14:00:15 GMT 52.84255 5.69725 40,000 241 453 0
2017-02-07 14:00:13 GMT 52.84483 5.70389 40,000 241 453 0
2017-02-07 14:00:12 GMT 52.84483 5.70389 40,000 241 453 0
2017-02-07 14:00:10 GMT 52.84843 5.71430 40,000 241 453 0
2017-02-07 14:00:08 GMT 52.84955 5.71762 40,000 241 453 0
2017-02-07 14:00:06 GMT 52.85178 5.72411 40,000 241 452 0
2017-02-07 14:00:04 GMT 52.85358 5.72922 40,000 241 452 0
2017-02-07 14:00:04 GMT 52.85358 5.72922 40,000 241 452 0
2017-02-07 14:00:02 GMT 52.85559 5.73509 40,000 241 452 0
2017-02-07 14:00:00 GMT 52.85867 5.74404 40,000 241 452 0
2017-02-07 13:59:58 GMT 52.86058 5.74954 40,000 241 452 0
2017-02-07 13:59:56 GMT 52.86277 5.75589 40,000 241 452 0
2017-02-07 13:59:54 GMT 52.86440 5.76060 40,000 241 452 -64
2017-02-07 13:59:52 GMT 52.86640 5.76641 40,000 241 452 0
2017-02-07 13:59:50 GMT 52.86882 5.77339 40,000 241 452 0
2017-02-07 13:59:48 GMT 52.87096 5.77967 40,000 241 452 0
2017-02-07 13:59:46 GMT 52.87310 5.78587 40,000 241 452 0
2017-02-07 13:59:44 GMT 52.87418 5.78903 40,000 241 452 0
2017-02-07 13:59:42 GMT 52.87624 5.79498 40,000 241 451 0
2017-02-07 13:59:39 GMT 52.87938 5.80408 40,000 241 450 0
2017-02-07 13:59:37 GMT 52.88237 5.81284 40,000 241 451 -64
2017-02-07 13:59:35 GMT 52.88393 5.81726 40,000 241 450 -64
2017-02-07 13:59:33 GMT 52.88594 5.82321 40,000 241 450 -64
2017-02-07 13:59:31 GMT 52.88791 5.82893 40,000 241 450 0
2017-02-07 13:59:29 GMT 52.89061 5.83672 40,000 241 450 64
2017-02-07 13:59:28 GMT 52.89061 5.83672 40,000 241 450 0
2017-02-07 13:59:26 GMT 52.89382 5.84606 40,000 241 450 64
2017-02-07 13:59:24 GMT 52.89500 5.84953 40,000 241 450 0
2017-02-07 13:59:22 GMT 52.89773 5.85744 40,000 241 450 0
2017-02-07 13:59:20 GMT 52.89899 5.86113 40,000 241 450 0
2017-02-07 13:59:18 GMT 52.90100 5.86700 40,000 241 450 0
2017-02-07 13:59:16 GMT 52.90311 5.87311 40,000 241 450 0
2017-02-07 13:59:14 GMT 52.90583 5.88106 40,000 241 450 0
2017-02-07 13:59:11 GMT 52.90834 5.88844 40,000 241 450 -64
2017-02-07 13:59:09 GMT 52.90997 5.89322 40,000 241 450 -64
2017-02-07 13:59:06 GMT 52.91383 5.90444 40,000 241 450 0
2017-02-07 13:59:04 GMT 52.91579 5.91017 40,000 241 449 64
2017-02-07 13:59:01 GMT 52.91904 5.91965 40,000 241 449 0
2017-02-07 13:58:59 GMT 52.92063 5.92430 40,000 241 449 0
2017-02-07 13:58:56 GMT 52.92463 5.93607 40,000 241 449 -64
2017-02-07 13:58:53 GMT 52.92631 5.94093 40,000 241 449 -64
2017-02-07 13:58:51 GMT 52.92952 5.95024 40,000 241 449 0
2017-02-07 13:58:48 GMT 52.93250 5.95891 40,000 241 449 64
2017-02-07 13:58:46 GMT 52.93350 5.96184 40,000 241 449 64
2017-02-07 13:58:44 GMT 52.93593 5.96901 40,000 241 449 64
2017-02-07 13:58:42 GMT 52.93916 5.97837 40,000 241 449 0
2017-02-07 13:58:40 GMT 52.94128 5.98473 40,000 241 448 0
2017-02-07 13:58:37 GMT 52.94284 5.98928 40,000 241 448 -64
2017-02-07 13:58:35 GMT 52.94474 5.99477 40,000 241 448 0
2017-02-07 13:58:33 GMT 52.94726 6.00222 40,000 241 449 64
2017-02-07 13:58:31 GMT 52.94870 6.00646 40,000 241 449 64
2017-02-07 13:58:28 GMT 52.95247 6.01753 40,000 241 449 0
2017-02-07 13:58:25 GMT 52.95499 6.02490 40,000 241 449 -64
2017-02-07 13:58:23 GMT 52.95885 6.03620 40,000 241 449 0
2017-02-07 13:58:21 GMT 52.96028 6.04034 40,000 241 449 0
2017-02-07 13:58:18 GMT 52.96337 6.04939 40,000 241 448 -64
2017-02-07 13:58:15 GMT 52.96587 6.05675 40,000 241 448 0
2017-02-07 13:58:15 GMT 52.96587 6.05675 40,000 241 448 -64
2017-02-07 13:58:12 GMT 52.96861 6.06484 40,000 241 448 0
2017-02-07 13:58:12 GMT 52.96861 6.06484 40,000 241 448 0
2017-02-07 13:58:10 GMT 52.97119 6.07246 40,000 241 448 0
2017-02-07 13:58:08 GMT 52.97342 6.07897 40,000 241 448 0
2017-02-07 13:58:05 GMT 52.97617 6.08704 40,000 241 448 64
2017-02-07 13:58:05 GMT 52.97667 6.08856 40,000 241 448 64
2017-02-07 13:58:03 GMT 52.97873 6.09467 40,000 241 449 0
2017-02-07 13:58:01 GMT 52.98019 6.09894 40,000 241 449 0
2017-02-07 13:57:59 GMT 52.98244 6.10550 40,000 241 449 -64
2017-02-07 13:57:57 GMT 52.98463 6.11206 40,000 241 449 -64
2017-02-07 13:57:54 GMT 52.98771 6.12111 40,000 241 449 0
2017-02-07 13:57:52 GMT 52.98925 6.12558 40,000 241 449 0